<?xml version="1.0" encoding="UTF-8" standalone="no" ?>
<gpx xmlns="http://www.topografix.com/GPX/1/1" xmlns:xsi="http://www.w3.org/2001/XMLSchema-instance" xsi:schemaLocation="http://www.topografix.com/GPX/1/1 http://www.topografix.com/GPX/1/1/gpx.xsd" version="1.1" creator="VisuGPX - https://www.visugpx.com">
  <metadata>
    <name>10_Cicuit 45 km Les Herbiers_Les Herbiers édité par cth85.com</name>
    <desc><![CDATA[Circuit de 55 km passant par:
Les Herbiers
la drapelière, la boule
Mesnard la Barotière
Saint Fulgent
Saint André Goule d'Oie
Les Essarts
direction Sainte Cécile
Mouchamps
Les Herbiers par la jonchère]]></desc>
  </metadata>
  <trk>
    <name><![CDATA[45_cth85.com]]></name>
    <desc><![CDATA[

]]></desc>
    <trkseg>
      <trkpt lat="46.86353" lon="-1.00596">
        <ele>119</ele>
        <time>2024-10-19T09:51:49.000Z</time>
      </trkpt>
      <trkpt lat="46.86326" lon="-1.00624">
        <ele>118.2</ele>
        <time>2024-10-19T09:51:53.534Z</time>
      </trkpt>
      <trkpt lat="46.86324" lon="-1.00626">
        <ele>118.2</ele>
        <time>2024-10-19T09:51:53.944Z</time>
      </trkpt>
      <trkpt lat="46.86272" lon="-1.00663">
        <ele>117.5</ele>
        <time>2024-10-19T09:52:02.714Z</time>
      </trkpt>
      <trkpt lat="46.86236" lon="-1.0068">
        <ele>116.2</ele>
        <time>2024-10-19T09:52:07.498Z</time>
      </trkpt>
      <trkpt lat="46.86192" lon="-1.007">
        <ele>115.4</ele>
        <time>2024-10-19T09:52:14.176Z</time>
      </trkpt>
      <trkpt lat="46.86183" lon="-1.00704">
        <ele>115.5</ele>
        <time>2024-10-19T09:52:15.945Z</time>
      </trkpt>
      <trkpt lat="46.86142" lon="-1.00728">
        <ele>115.3</ele>
        <time>2024-10-19T09:52:23.115Z</time>
      </trkpt>
      <trkpt lat="46.86114" lon="-1.00752">
        <ele>115.2</ele>
        <time>2024-10-19T09:52:28.456Z</time>
        <extensions>
          <visugpx:TrkExtension xmlns:visugpx="https://www.visugpx.com/editgpx/">
            <visugpx:node>1</visugpx:node>
            </visugpx:TrkExtension>
        </extensions>
      </trkpt>
      <trkpt lat="46.86095" lon="-1.00767">
        <ele>114.7</ele>
        <time>2024-10-19T09:52:31.438Z</time>
      </trkpt>
      <trkpt lat="46.86072" lon="-1.00793">
        <ele>114</ele>
        <time>2024-10-19T09:52:35.422Z</time>
      </trkpt>
      <trkpt lat="46.86" lon="-1.00891">
        <ele>113</ele>
        <time>2024-10-19T09:52:50.596Z</time>
      </trkpt>
      <trkpt lat="46.85985" lon="-1.00915">
        <ele>113</ele>
        <time>2024-10-19T09:52:54.362Z</time>
      </trkpt>
      <trkpt lat="46.85957" lon="-1.00964">
        <ele>112.8</ele>
        <time>2024-10-19T09:53:01.448Z</time>
      </trkpt>
      <trkpt lat="46.85951" lon="-1.00979">
        <ele>113</ele>
        <time>2024-10-19T09:53:03.832Z</time>
      </trkpt>
      <trkpt lat="46.85879" lon="-1.00945">
        <ele>112.6</ele>
        <time>2024-10-19T09:53:16.030Z</time>
      </trkpt>
      <trkpt lat="46.8587" lon="-1.00936">
        <ele>112.3</ele>
        <time>2024-10-19T09:53:17.484Z</time>
      </trkpt>
      <trkpt lat="46.85865" lon="-1.00926">
        <ele>112.1</ele>
        <time>2024-10-19T09:53:18.650Z</time>
      </trkpt>
      <trkpt lat="46.85864" lon="-1.00916">
        <ele>112.1</ele>
        <time>2024-10-19T09:53:19.821Z</time>
      </trkpt>
      <trkpt lat="46.8586" lon="-1.00907">
        <ele>112</ele>
        <time>2024-10-19T09:53:20.919Z</time>
      </trkpt>
      <trkpt lat="46.85853" lon="-1.00904">
        <ele>112</ele>
        <time>2024-10-19T09:53:22.155Z</time>
      </trkpt>
      <trkpt lat="46.85848" lon="-1.00904">
        <ele>112</ele>
        <time>2024-10-19T09:53:23.002Z</time>
      </trkpt>
      <trkpt lat="46.85841" lon="-1.00911">
        <ele>112</ele>
        <time>2024-10-19T09:53:24.438Z</time>
      </trkpt>
      <trkpt lat="46.85839" lon="-1.00917">
        <ele>112</ele>
        <time>2024-10-19T09:53:25.211Z</time>
      </trkpt>
      <trkpt lat="46.85817" lon="-1.00904">
        <ele>112</ele>
        <time>2024-10-19T09:53:29.231Z</time>
      </trkpt>
      <trkpt lat="46.8579" lon="-1.00886">
        <ele>112</ele>
        <time>2024-10-19T09:53:34.257Z</time>
      </trkpt>
      <trkpt lat="46.85764" lon="-1.00872">
        <ele>112</ele>
        <time>2024-10-19T09:53:38.950Z</time>
      </trkpt>
      <trkpt lat="46.85748" lon="-1.00862">
        <ele>112</ele>
        <time>2024-10-19T09:53:41.898Z</time>
      </trkpt>
      <trkpt lat="46.85714" lon="-1.00843">
        <ele>111.8</ele>
        <time>2024-10-19T09:53:47.755Z</time>
      </trkpt>
      <trkpt lat="46.8569" lon="-1.00829">
        <ele>111</ele>
        <time>2024-10-19T09:53:51.109Z</time>
      </trkpt>
      <trkpt lat="46.85677" lon="-1.00817">
        <ele>111</ele>
        <time>2024-10-19T09:53:53.713Z</time>
      </trkpt>
      <trkpt lat="46.8564" lon="-1.00782">
        <ele>110</ele>
        <time>2024-10-19T09:53:59.822Z</time>
      </trkpt>
      <trkpt lat="46.85635" lon="-1.00777">
        <ele>110</ele>
        <time>2024-10-19T09:54:00.848Z</time>
      </trkpt>
      <trkpt lat="46.85562" lon="-1.00711">
        <ele>108.7</ele>
        <time>2024-10-19T09:54:13.524Z</time>
      </trkpt>
      <trkpt lat="46.85539" lon="-1.00693">
        <ele>108</ele>
        <time>2024-10-19T09:54:17.022Z</time>
      </trkpt>
      <trkpt lat="46.85509" lon="-1.00673">
        <ele>107.3</ele>
        <time>2024-10-19T09:54:21.648Z</time>
      </trkpt>
      <trkpt lat="46.85483" lon="-1.00654">
        <ele>107</ele>
        <time>2024-10-19T09:54:26.126Z</time>
      </trkpt>
      <trkpt lat="46.85461" lon="-1.0064">
        <ele>107</ele>
        <time>2024-10-19T09:54:30.190Z</time>
      </trkpt>
      <trkpt lat="46.85421" lon="-1.00623">
        <ele>106.9</ele>
        <time>2024-10-19T09:54:37.088Z</time>
      </trkpt>
      <trkpt lat="46.85372" lon="-1.006">
        <ele>107.8</ele>
        <time>2024-10-19T09:54:47.483Z</time>
      </trkpt>
      <trkpt lat="46.85341" lon="-1.00587">
        <ele>108.1</ele>
        <time>2024-10-19T09:54:53.467Z</time>
      </trkpt>
      <trkpt lat="46.85286" lon="-1.00571">
        <ele>109</ele>
        <time>2024-10-19T09:55:04.623Z</time>
      </trkpt>
      <trkpt lat="46.85268" lon="-1.00561">
        <ele>108.6</ele>
        <time>2024-10-19T09:55:07.335Z</time>
      </trkpt>
      <trkpt lat="46.85261" lon="-1.00555">
        <ele>108.4</ele>
        <time>2024-10-19T09:55:08.442Z</time>
      </trkpt>
      <trkpt lat="46.85241" lon="-1.0054">
        <ele>108</ele>
        <time>2024-10-19T09:55:11.688Z</time>
      </trkpt>
      <trkpt lat="46.85196" lon="-1.00508">
        <ele>108</ele>
        <time>2024-10-19T09:55:20.164Z</time>
      </trkpt>
      <trkpt lat="46.85193" lon="-1.00506">
        <ele>108.1</ele>
        <time>2024-10-19T09:55:20.932Z</time>
      </trkpt>
      <trkpt lat="46.85131" lon="-1.0046">
        <ele>109.6</ele>
        <time>2024-10-19T09:55:35.607Z</time>
      </trkpt>
      <trkpt lat="46.85102" lon="-1.00439">
        <ele>110.5</ele>
        <time>2024-10-19T09:55:42.927Z</time>
      </trkpt>
      <trkpt lat="46.85077" lon="-1.00424">
        <ele>111.1</ele>
        <time>2024-10-19T09:55:48.671Z</time>
      </trkpt>
      <trkpt lat="46.85055" lon="-1.0041">
        <ele>111</ele>
        <time>2024-10-19T09:55:52.579Z</time>
      </trkpt>
      <trkpt lat="46.85026" lon="-1.00397">
        <ele>112.3</ele>
        <time>2024-10-19T09:56:00.776Z</time>
      </trkpt>
      <trkpt lat="46.84988" lon="-1.00386">
        <ele>113.5</ele>
        <time>2024-10-19T09:56:09.861Z</time>
      </trkpt>
      <trkpt lat="46.84957" lon="-1.0038">
        <ele>114.3</ele>
        <time>2024-10-19T09:56:16.760Z</time>
      </trkpt>
      <trkpt lat="46.84919" lon="-1.00379">
        <ele>114.9</ele>
        <time>2024-10-19T09:56:24.300Z</time>
      </trkpt>
      <trkpt lat="46.8488" lon="-1.00379">
        <ele>115.1</ele>
        <time>2024-10-19T09:56:31.242Z</time>
      </trkpt>
      <trkpt lat="46.84874" lon="-1.0038">
        <ele>115.2</ele>
        <time>2024-10-19T09:56:32.450Z</time>
      </trkpt>
      <trkpt lat="46.84829" lon="-1.00389">
        <ele>116</ele>
        <time>2024-10-19T09:56:41.637Z</time>
      </trkpt>
      <trkpt lat="46.84802" lon="-1.00397">
        <ele>116</ele>
        <time>2024-10-19T09:56:46.303Z</time>
      </trkpt>
      <trkpt lat="46.84792" lon="-1.004">
        <ele>116</ele>
        <time>2024-10-19T09:56:48.032Z</time>
      </trkpt>
      <trkpt lat="46.84782" lon="-1.00402">
        <ele>116</ele>
        <time>2024-10-19T09:56:49.742Z</time>
      </trkpt>
      <trkpt lat="46.84775" lon="-1.00403">
        <ele>116</ele>
        <time>2024-10-19T09:56:50.933Z</time>
      </trkpt>
      <trkpt lat="46.84773" lon="-1.00396">
        <ele>116</ele>
        <time>2024-10-19T09:56:51.812Z</time>
      </trkpt>
      <trkpt lat="46.84766" lon="-1.00393">
        <ele>116</ele>
        <time>2024-10-19T09:56:53.048Z</time>
      </trkpt>
      <trkpt lat="46.8476" lon="-1.00401">
        <ele>116</ele>
        <time>2024-10-19T09:56:54.424Z</time>
      </trkpt>
      <trkpt lat="46.8476" lon="-1.00408">
        <ele>116</ele>
        <time>2024-10-19T09:56:55.235Z</time>
      </trkpt>
      <trkpt lat="46.84749" lon="-1.00414">
        <ele>116</ele>
        <time>2024-10-19T09:56:57.223Z</time>
      </trkpt>
      <trkpt lat="46.84738" lon="-1.0042">
        <ele>115.6</ele>
        <time>2024-10-19T09:56:58.712Z</time>
      </trkpt>
      <trkpt lat="46.8472" lon="-1.00426">
        <ele>115</ele>
        <time>2024-10-19T09:57:01.080Z</time>
        <extensions>
          <visugpx:TrkExtension xmlns:visugpx="https://www.visugpx.com/editgpx/">
            <visugpx:node>2</visugpx:node>
            </visugpx:TrkExtension>
        </extensions>
      </trkpt>
      <trkpt lat="46.84649" lon="-1.0045">
        <ele>114.1</ele>
        <time>2024-10-19T09:57:12.107Z</time>
      </trkpt>
      <trkpt lat="46.84626" lon="-1.00457">
        <ele>113.5</ele>
        <time>2024-10-19T09:57:15.290Z</time>
      </trkpt>
      <trkpt lat="46.84571" lon="-1.00468">
        <ele>112.8</ele>
        <time>2024-10-19T09:57:23.671Z</time>
      </trkpt>
      <trkpt lat="46.84532" lon="-1.0047">
        <ele>112.9</ele>
        <time>2024-10-19T09:57:30.446Z</time>
      </trkpt>
      <trkpt lat="46.84501" lon="-1.00463">
        <ele>113</ele>
        <time>2024-10-19T09:57:35.925Z</time>
      </trkpt>
      <trkpt lat="46.84497" lon="-1.00454">
        <ele>113</ele>
        <time>2024-10-19T09:57:37.168Z</time>
      </trkpt>
      <trkpt lat="46.84494" lon="-1.00452">
        <ele>113.1</ele>
        <time>2024-10-19T09:57:37.936Z</time>
      </trkpt>
      <trkpt lat="46.84487" lon="-1.00449">
        <ele>113.1</ele>
        <time>2024-10-19T09:57:39.172Z</time>
      </trkpt>
      <trkpt lat="46.84478" lon="-1.00453">
        <ele>113.2</ele>
        <time>2024-10-19T09:57:40.941Z</time>
      </trkpt>
      <trkpt lat="46.84475" lon="-1.00458">
        <ele>113.4</ele>
        <time>2024-10-19T09:57:42.187Z</time>
      </trkpt>
      <trkpt lat="46.84474" lon="-1.0046">
        <ele>113.5</ele>
        <time>2024-10-19T09:57:42.750Z</time>
      </trkpt>
      <trkpt lat="46.84447" lon="-1.00467">
        <ele>114</ele>
        <time>2024-10-19T09:57:48.333Z</time>
      </trkpt>
      <trkpt lat="46.84427" lon="-1.00466">
        <ele>114</ele>
        <time>2024-10-19T09:57:51.723Z</time>
      </trkpt>
      <trkpt lat="46.84424" lon="-1.00465">
        <ele>114</ele>
        <time>2024-10-19T09:57:52.244Z</time>
      </trkpt>
      <trkpt lat="46.83872" lon="-1.00421">
        <ele>124.5</ele>
        <time>2024-10-19T09:59:45.718Z</time>
      </trkpt>
      <trkpt lat="46.83858" lon="-1.00421">
        <ele>124.7</ele>
        <time>2024-10-19T09:59:48.452Z</time>
      </trkpt>
      <trkpt lat="46.83613" lon="-1.00402">
        <ele>125</ele>
        <time>2024-10-19T10:00:30.499Z</time>
      </trkpt>
      <trkpt lat="46.83507" lon="-1.00398">
        <ele>126.2</ele>
        <time>2024-10-19T10:00:50.583Z</time>
      </trkpt>
      <trkpt lat="46.83437" lon="-1.0039">
        <ele>126</ele>
        <time>2024-10-19T10:01:02.161Z</time>
      </trkpt>
      <trkpt lat="46.83326" lon="-1.00377">
        <ele>125.6</ele>
        <time>2024-10-19T10:01:20.398Z</time>
      </trkpt>
      <trkpt lat="46.83314" lon="-1.00376">
        <ele>125.5</ele>
        <time>2024-10-19T10:01:22.283Z</time>
      </trkpt>
      <trkpt lat="46.83315" lon="-1.00397">
        <ele>125.9</ele>
        <time>2024-10-19T10:01:25.540Z</time>
      </trkpt>
      <trkpt lat="46.83312" lon="-1.00428">
        <ele>125.5</ele>
        <time>2024-10-19T10:01:28.610Z</time>
      </trkpt>
      <trkpt lat="46.83304" lon="-1.00452">
        <ele>125</ele>
        <time>2024-10-19T10:01:31.048Z</time>
      </trkpt>
      <trkpt lat="46.8329" lon="-1.00467">
        <ele>125</ele>
        <time>2024-10-19T10:01:33.989Z</time>
      </trkpt>
      <trkpt lat="46.83274" lon="-1.00479">
        <ele>125</ele>
        <time>2024-10-19T10:01:37.035Z</time>
      </trkpt>
      <trkpt lat="46.83225" lon="-1.00507">
        <ele>124.1</ele>
        <time>2024-10-19T10:01:44.676Z</time>
      </trkpt>
      <trkpt lat="46.83179" lon="-1.00524">
        <ele>122.9</ele>
        <time>2024-10-19T10:01:51.117Z</time>
      </trkpt>
      <trkpt lat="46.83142" lon="-1.00545">
        <ele>121.7</ele>
        <time>2024-10-19T10:01:56.298Z</time>
      </trkpt>
      <trkpt lat="46.83105" lon="-1.00574">
        <ele>120.9</ele>
        <time>2024-10-19T10:02:02.297Z</time>
      </trkpt>
      <trkpt lat="46.83026" lon="-1.00646">
        <ele>122</ele>
        <time>2024-10-19T10:02:20.020Z</time>
      </trkpt>
      <trkpt lat="46.83005" lon="-1.00668">
        <ele>122</ele>
        <time>2024-10-19T10:02:24.397Z</time>
      </trkpt>
      <trkpt lat="46.82987" lon="-1.00695">
        <ele>121.5</ele>
        <time>2024-10-19T10:02:28.071Z</time>
      </trkpt>
      <trkpt lat="46.82972" lon="-1.00722">
        <ele>122</ele>
        <time>2024-10-19T10:02:33.063Z</time>
      </trkpt>
      <trkpt lat="46.82898" lon="-1.00868">
        <ele>122.3</ele>
        <time>2024-10-19T10:02:54.614Z</time>
      </trkpt>
      <trkpt lat="46.82874" lon="-1.00913">
        <ele>122</ele>
        <time>2024-10-19T10:03:00.772Z</time>
      </trkpt>
      <trkpt lat="46.82859" lon="-1.00936">
        <ele>121.3</ele>
        <time>2024-10-19T10:03:03.567Z</time>
      </trkpt>
      <trkpt lat="46.82821" lon="-1.00981">
        <ele>120</ele>
        <time>2024-10-19T10:03:10.138Z</time>
        <extensions>
          <visugpx:TrkExtension xmlns:visugpx="https://www.visugpx.com/editgpx/">
            <visugpx:node>3</visugpx:node>
            </visugpx:TrkExtension>
        </extensions>
      </trkpt>
      <trkpt lat="46.82739" lon="-1.01078">
        <ele>118.4</ele>
        <time>2024-10-19T10:03:25.716Z</time>
      </trkpt>
      <trkpt lat="46.8266" lon="-1.0117">
        <ele>119.1</ele>
        <time>2024-10-19T10:03:44.019Z</time>
      </trkpt>
      <trkpt lat="46.82632" lon="-1.01197">
        <ele>120.1</ele>
        <time>2024-10-19T10:03:51.782Z</time>
      </trkpt>
      <trkpt lat="46.82601" lon="-1.01213">
        <ele>119.9</ele>
        <time>2024-10-19T10:03:57.044Z</time>
      </trkpt>
      <trkpt lat="46.82369" lon="-1.01314">
        <ele>121.7</ele>
        <time>2024-10-19T10:04:41.131Z</time>
      </trkpt>
      <trkpt lat="46.82207" lon="-1.01384">
        <ele>121.1</ele>
        <time>2024-10-19T10:05:08.807Z</time>
      </trkpt>
      <trkpt lat="46.82173" lon="-1.01402">
        <ele>121</ele>
        <time>2024-10-19T10:05:14.775Z</time>
      </trkpt>
      <trkpt lat="46.81955" lon="-1.01557">
        <ele>118</ele>
        <time>2024-10-19T10:05:51.454Z</time>
      </trkpt>
      <trkpt lat="46.81783" lon="-1.01677">
        <ele>116</ele>
        <time>2024-10-19T10:06:20.772Z</time>
      </trkpt>
      <trkpt lat="46.81719" lon="-1.0174">
        <ele>116</ele>
        <time>2024-10-19T10:06:33.843Z</time>
      </trkpt>
      <trkpt lat="46.81584" lon="-1.01887">
        <ele>116</ele>
        <time>2024-10-19T10:07:02.362Z</time>
        <extensions>
          <visugpx:TrkExtension xmlns:visugpx="https://www.visugpx.com/editgpx/">
            <visugpx:node>4</visugpx:node>
            </visugpx:TrkExtension>
        </extensions>
      </trkpt>
      <trkpt lat="46.81539" lon="-1.01936">
        <ele>116.9</ele>
        <time>2024-10-19T10:07:13.525Z</time>
      </trkpt>
      <trkpt lat="46.81506" lon="-1.01967">
        <ele>117</ele>
        <time>2024-10-19T10:07:20.335Z</time>
      </trkpt>
      <trkpt lat="46.81483" lon="-1.01977">
        <ele>117.1</ele>
        <time>2024-10-19T10:07:24.567Z</time>
      </trkpt>
      <trkpt lat="46.8147" lon="-1.01978">
        <ele>117.3</ele>
        <time>2024-10-19T10:07:27.138Z</time>
      </trkpt>
      <trkpt lat="46.81453" lon="-1.01977">
        <ele>117.7</ele>
        <time>2024-10-19T10:07:30.806Z</time>
      </trkpt>
      <trkpt lat="46.81366" lon="-1.01945">
        <ele>118.8</ele>
        <time>2024-10-19T10:07:47.963Z</time>
      </trkpt>
      <trkpt lat="46.81349" lon="-1.01942">
        <ele>119</ele>
        <time>2024-10-19T10:07:51.219Z</time>
      </trkpt>
      <trkpt lat="46.81316" lon="-1.01943">
        <ele>119.6</ele>
        <time>2024-10-19T10:07:57.935Z</time>
      </trkpt>
      <trkpt lat="46.81176" lon="-1.01966">
        <ele>119.5</ele>
        <time>2024-10-19T10:08:21.639Z</time>
      </trkpt>
      <trkpt lat="46.81165" lon="-1.0197">
        <ele>119.1</ele>
        <time>2024-10-19T10:08:23.063Z</time>
      </trkpt>
      <trkpt lat="46.81142" lon="-1.01981">
        <ele>119</ele>
        <time>2024-10-19T10:08:27.007Z</time>
      </trkpt>
      <trkpt lat="46.81117" lon="-1.02004">
        <ele>119</ele>
        <time>2024-10-19T10:08:32.011Z</time>
      </trkpt>
      <trkpt lat="46.81107" lon="-1.02017">
        <ele>118.9</ele>
        <time>2024-10-19T10:08:34.126Z</time>
      </trkpt>
      <trkpt lat="46.81093" lon="-1.02041">
        <ele>118.7</ele>
        <time>2024-10-19T10:08:37.483Z</time>
      </trkpt>
      <trkpt lat="46.81054" lon="-1.02117">
        <ele>118</ele>
        <time>2024-10-19T10:08:47.459Z</time>
      </trkpt>
      <trkpt lat="46.80997" lon="-1.02233">
        <ele>118</ele>
        <time>2024-10-19T10:09:04.015Z</time>
      </trkpt>
      <trkpt lat="46.80971" lon="-1.02286">
        <ele>117</ele>
        <time>2024-10-19T10:09:10.216Z</time>
      </trkpt>
      <trkpt lat="46.80947" lon="-1.0235">
        <ele>117</ele>
        <time>2024-10-19T10:09:18.677Z</time>
      </trkpt>
      <trkpt lat="46.80883" lon="-1.02535">
        <ele>115.2</ele>
        <time>2024-10-19T10:09:40.083Z</time>
      </trkpt>
      <trkpt lat="46.80849" lon="-1.02626">
        <ele>115</ele>
        <time>2024-10-19T10:09:51.788Z</time>
      </trkpt>
      <trkpt lat="46.80843" lon="-1.0264">
        <ele>115</ele>
        <time>2024-10-19T10:09:53.703Z</time>
      </trkpt>
      <trkpt lat="46.80675" lon="-1.02965">
        <ele>112.2</ele>
        <time>2024-10-19T10:10:36.754Z</time>
      </trkpt>
      <trkpt lat="46.80627" lon="-1.03064">
        <ele>111.3</ele>
        <time>2024-10-19T10:10:49.489Z</time>
      </trkpt>
      <trkpt lat="46.80433" lon="-1.03468">
        <ele>111</ele>
        <time>2024-10-19T10:11:46.229Z</time>
      </trkpt>
      <trkpt lat="46.80407" lon="-1.03538">
        <ele>111</ele>
        <time>2024-10-19T10:11:55.464Z</time>
      </trkpt>
      <trkpt lat="46.80379" lon="-1.03629">
        <ele>110.6</ele>
        <time>2024-10-19T10:12:06.417Z</time>
      </trkpt>
      <trkpt lat="46.80242" lon="-1.04071">
        <ele>107.7</ele>
        <time>2024-10-19T10:12:58.315Z</time>
      </trkpt>
      <trkpt lat="46.80229" lon="-1.04114">
        <ele>107.2</ele>
        <time>2024-10-19T10:13:03.052Z</time>
      </trkpt>
      <trkpt lat="46.80184" lon="-1.04252">
        <ele>106.6</ele>
        <time>2024-10-19T10:13:19.852Z</time>
      </trkpt>
      <trkpt lat="46.8017" lon="-1.04284">
        <ele>106.3</ele>
        <time>2024-10-19T10:13:23.814Z</time>
      </trkpt>
      <trkpt lat="46.80156" lon="-1.04315">
        <ele>106.6</ele>
        <time>2024-10-19T10:13:28.653Z</time>
      </trkpt>
      <trkpt lat="46.80052" lon="-1.04519">
        <ele>106.9</ele>
        <time>2024-10-19T10:13:58.638Z</time>
      </trkpt>
      <trkpt lat="46.8003" lon="-1.04557">
        <ele>107</ele>
        <time>2024-10-19T10:14:04.574Z</time>
      </trkpt>
      <trkpt lat="46.80016" lon="-1.04575">
        <ele>106.6</ele>
        <time>2024-10-19T10:14:07.186Z</time>
      </trkpt>
      <trkpt lat="46.80002" lon="-1.0459">
        <ele>106.3</ele>
        <time>2024-10-19T10:14:09.704Z</time>
      </trkpt>
      <trkpt lat="46.79972" lon="-1.04612">
        <ele>106</ele>
        <time>2024-10-19T10:14:14.939Z</time>
      </trkpt>
      <trkpt lat="46.7995" lon="-1.04621">
        <ele>105.2</ele>
        <time>2024-10-19T10:14:17.815Z</time>
      </trkpt>
      <trkpt lat="46.79923" lon="-1.0463">
        <ele>104.2</ele>
        <time>2024-10-19T10:14:21.272Z</time>
        <extensions>
          <visugpx:TrkExtension xmlns:visugpx="https://www.visugpx.com/editgpx/">
            <visugpx:node>5</visugpx:node>
            </visugpx:TrkExtension>
        </extensions>
      </trkpt>
      <trkpt lat="46.79923" lon="-1.0463">
        <ele>104.2</ele>
        <time>2024-10-19T10:14:21.272Z</time>
        <extensions>
          <visugpx:TrkExtension xmlns:visugpx="https://www.visugpx.com/editgpx/">
            <visugpx:node>6</visugpx:node>
            </visugpx:TrkExtension>
        </extensions>
      </trkpt>
      <trkpt lat="46.79783" lon="-1.04678">
        <ele>103</ele>
        <time>2024-10-19T10:14:43.821Z</time>
      </trkpt>
      <trkpt lat="46.79755" lon="-1.04692">
        <ele>102.9</ele>
        <time>2024-10-19T10:14:48.678Z</time>
      </trkpt>
      <trkpt lat="46.79711" lon="-1.04717">
        <ele>103</ele>
        <time>2024-10-19T10:14:56.839Z</time>
      </trkpt>
      <trkpt lat="46.79546" lon="-1.04824">
        <ele>102.3</ele>
        <time>2024-10-19T10:15:26.326Z</time>
      </trkpt>
      <trkpt lat="46.79486" lon="-1.04864">
        <ele>102.5</ele>
        <time>2024-10-19T10:15:37.828Z</time>
      </trkpt>
      <trkpt lat="46.794" lon="-1.04937">
        <ele>104</ele>
        <time>2024-10-19T10:15:57.416Z</time>
      </trkpt>
      <trkpt lat="46.79347" lon="-1.0499">
        <ele>104.3</ele>
        <time>2024-10-19T10:16:08.798Z</time>
      </trkpt>
      <trkpt lat="46.7918" lon="-1.05188">
        <ele>103.1</ele>
        <time>2024-10-19T10:16:43.384Z</time>
      </trkpt>
      <trkpt lat="46.79087" lon="-1.05295">
        <ele>100.9</ele>
        <time>2024-10-19T10:17:00.365Z</time>
      </trkpt>
      <trkpt lat="46.79077" lon="-1.05309">
        <ele>101.1</ele>
        <time>2024-10-19T10:17:03.075Z</time>
      </trkpt>
      <trkpt lat="46.79065" lon="-1.05332">
        <ele>100.7</ele>
        <time>2024-10-19T10:17:05.877Z</time>
      </trkpt>
      <trkpt lat="46.78945" lon="-1.05575">
        <ele>103.7</ele>
        <time>2024-10-19T10:17:46.081Z</time>
      </trkpt>
      <trkpt lat="46.78929" lon="-1.05601">
        <ele>104</ele>
        <time>2024-10-19T10:17:50.671Z</time>
      </trkpt>
      <trkpt lat="46.78911" lon="-1.05623">
        <ele>104.3</ele>
        <time>2024-10-19T10:17:55.184Z</time>
      </trkpt>
      <trkpt lat="46.78879" lon="-1.05654">
        <ele>105.9</ele>
        <time>2024-10-19T10:18:05.410Z</time>
      </trkpt>
      <trkpt lat="46.78853" lon="-1.0567">
        <ele>107.6</ele>
        <time>2024-10-19T10:18:14.937Z</time>
      </trkpt>
      <trkpt lat="46.7879" lon="-1.05695">
        <ele>110.6</ele>
        <time>2024-10-19T10:18:33.268Z</time>
      </trkpt>
      <trkpt lat="46.78769" lon="-1.05702">
        <ele>111.6</ele>
        <time>2024-10-19T10:18:39.352Z</time>
      </trkpt>
      <trkpt lat="46.78766" lon="-1.05694">
        <ele>111.9</ele>
        <time>2024-10-19T10:18:41.152Z</time>
      </trkpt>
      <trkpt lat="46.78762" lon="-1.05687">
        <ele>112.1</ele>
        <time>2024-10-19T10:18:42.634Z</time>
      </trkpt>
      <trkpt lat="46.78756" lon="-1.05683">
        <ele>112.3</ele>
        <time>2024-10-19T10:18:44.170Z</time>
      </trkpt>
      <trkpt lat="46.7875" lon="-1.05682">
        <ele>112.6</ele>
        <time>2024-10-19T10:18:45.947Z</time>
      </trkpt>
      <trkpt lat="46.78744" lon="-1.05684">
        <ele>112.6</ele>
        <time>2024-10-19T10:18:46.989Z</time>
      </trkpt>
      <trkpt lat="46.78739" lon="-1.05689">
        <ele>112.6</ele>
        <time>2024-10-19T10:18:48.016Z</time>
      </trkpt>
      <trkpt lat="46.78735" lon="-1.05696">
        <ele>112.5</ele>
        <time>2024-10-19T10:18:48.931Z</time>
      </trkpt>
      <trkpt lat="46.78733" lon="-1.05704">
        <ele>112.4</ele>
        <time>2024-10-19T10:18:49.778Z</time>
      </trkpt>
      <trkpt lat="46.78733" lon="-1.05713">
        <ele>112.4</ele>
        <time>2024-10-19T10:18:50.822Z</time>
      </trkpt>
      <trkpt lat="46.78734" lon="-1.05721">
        <ele>112.4</ele>
        <time>2024-10-19T10:18:51.765Z</time>
      </trkpt>
      <trkpt lat="46.78738" lon="-1.05728">
        <ele>112.3</ele>
        <time>2024-10-19T10:18:52.680Z</time>
      </trkpt>
      <trkpt lat="46.78743" lon="-1.05733">
        <ele>112.2</ele>
        <time>2024-10-19T10:18:53.565Z</time>
      </trkpt>
      <trkpt lat="46.78748" lon="-1.05736">
        <ele>112</ele>
        <time>2024-10-19T10:18:54.235Z</time>
      </trkpt>
      <trkpt lat="46.7874" lon="-1.05811">
        <ele>111</ele>
        <time>2024-10-19T10:19:01.649Z</time>
      </trkpt>
      <trkpt lat="46.78709" lon="-1.05965">
        <ele>110</ele>
        <time>2024-10-19T10:19:18.767Z</time>
      </trkpt>
      <trkpt lat="46.78702" lon="-1.06008">
        <ele>109.8</ele>
        <time>2024-10-19T10:19:23.587Z</time>
      </trkpt>
      <trkpt lat="46.78701" lon="-1.06019">
        <ele>109.5</ele>
        <time>2024-10-19T10:19:24.513Z</time>
        <extensions>
          <visugpx:TrkExtension xmlns:visugpx="https://www.visugpx.com/editgpx/">
            <visugpx:node>7</visugpx:node>
            </visugpx:TrkExtension>
        </extensions>
      </trkpt>
      <trkpt lat="46.78699" lon="-1.0605">
        <ele>109.2</ele>
        <time>2024-10-19T10:19:27.691Z</time>
      </trkpt>
      <trkpt lat="46.78695" lon="-1.06162">
        <ele>109</ele>
        <time>2024-10-19T10:19:40.383Z</time>
      </trkpt>
      <trkpt lat="46.7869" lon="-1.06236">
        <ele>109</ele>
        <time>2024-10-19T10:19:49.008Z</time>
      </trkpt>
      <trkpt lat="46.78671" lon="-1.06386">
        <ele>109</ele>
        <time>2024-10-19T10:20:06.701Z</time>
      </trkpt>
      <trkpt lat="46.78645" lon="-1.06522">
        <ele>107.2</ele>
        <time>2024-10-19T10:20:20.565Z</time>
      </trkpt>
      <trkpt lat="46.78639" lon="-1.06544">
        <ele>107</ele>
        <time>2024-10-19T10:20:23.019Z</time>
      </trkpt>
      <trkpt lat="46.78633" lon="-1.06563">
        <ele>106.5</ele>
        <time>2024-10-19T10:20:24.824Z</time>
      </trkpt>
      <trkpt lat="46.7862" lon="-1.06602">
        <ele>105.3</ele>
        <time>2024-10-19T10:20:28.416Z</time>
      </trkpt>
      <trkpt lat="46.78609" lon="-1.06639">
        <ele>103.9</ele>
        <time>2024-10-19T10:20:31.525Z</time>
      </trkpt>
      <trkpt lat="46.78639" lon="-1.06665">
        <ele>105.1</ele>
        <time>2024-10-19T10:20:40.040Z</time>
      </trkpt>
      <trkpt lat="46.78703" lon="-1.06751">
        <ele>106.6</ele>
        <time>2024-10-19T10:20:57.562Z</time>
      </trkpt>
      <trkpt lat="46.78752" lon="-1.06804">
        <ele>108.1</ele>
        <time>2024-10-19T10:21:10.867Z</time>
      </trkpt>
      <trkpt lat="46.78787" lon="-1.06858">
        <ele>107.1</ele>
        <time>2024-10-19T10:21:18.106Z</time>
      </trkpt>
      <trkpt lat="46.78796" lon="-1.06876">
        <ele>106.6</ele>
        <time>2024-10-19T10:21:20.060Z</time>
      </trkpt>
      <trkpt lat="46.78809" lon="-1.06909">
        <ele>106</ele>
        <time>2024-10-19T10:21:23.664Z</time>
      </trkpt>
      <trkpt lat="46.78814" lon="-1.0693">
        <ele>105.9</ele>
        <time>2024-10-19T10:21:26.090Z</time>
      </trkpt>
      <trkpt lat="46.78831" lon="-1.07034">
        <ele>105</ele>
        <time>2024-10-19T10:21:37.174Z</time>
      </trkpt>
      <trkpt lat="46.7884" lon="-1.07076">
        <ele>104.9</ele>
        <time>2024-10-19T10:21:42.121Z</time>
      </trkpt>
      <trkpt lat="46.78848" lon="-1.07105">
        <ele>105</ele>
        <time>2024-10-19T10:21:45.915Z</time>
      </trkpt>
      <trkpt lat="46.78862" lon="-1.0714">
        <ele>105</ele>
        <time>2024-10-19T10:21:50.616Z</time>
      </trkpt>
      <trkpt lat="46.78881" lon="-1.07179">
        <ele>103.8</ele>
        <time>2024-10-19T10:21:54.692Z</time>
      </trkpt>
      <trkpt lat="46.78905" lon="-1.07219">
        <ele>102.9</ele>
        <time>2024-10-19T10:21:59.658Z</time>
      </trkpt>
      <trkpt lat="46.78932" lon="-1.07253">
        <ele>100.3</ele>
        <time>2024-10-19T10:22:03.281Z</time>
      </trkpt>
      <trkpt lat="46.78947" lon="-1.07269">
        <ele>97.8</ele>
        <time>2024-10-19T10:22:05.169Z</time>
      </trkpt>
      <trkpt lat="46.78974" lon="-1.07293">
        <ele>95.9</ele>
        <time>2024-10-19T10:22:08.515Z</time>
      </trkpt>
      <trkpt lat="46.79047" lon="-1.07369">
        <ele>84</ele>
        <time>2024-10-19T10:22:17.626Z</time>
      </trkpt>
      <trkpt lat="46.79072" lon="-1.07385">
        <ele>82.6</ele>
        <time>2024-10-19T10:22:20.686Z</time>
      </trkpt>
      <trkpt lat="46.79091" lon="-1.07388">
        <ele>83</ele>
        <time>2024-10-19T10:22:24.692Z</time>
      </trkpt>
      <trkpt lat="46.79108" lon="-1.07387">
        <ele>85.4</ele>
        <time>2024-10-19T10:22:37.043Z</time>
      </trkpt>
      <trkpt lat="46.79119" lon="-1.0739">
        <ele>86.7</ele>
        <time>2024-10-19T10:22:44.577Z</time>
      </trkpt>
      <trkpt lat="46.79128" lon="-1.07402">
        <ele>88.2</ele>
        <time>2024-10-19T10:22:53.162Z</time>
      </trkpt>
      <trkpt lat="46.79149" lon="-1.07461">
        <ele>91.7</ele>
        <time>2024-10-19T10:23:12.408Z</time>
      </trkpt>
      <trkpt lat="46.792" lon="-1.07573">
        <ele>94</ele>
        <time>2024-10-19T10:23:32.588Z</time>
      </trkpt>
      <trkpt lat="46.79208" lon="-1.07586">
        <ele>94</ele>
        <time>2024-10-19T10:23:34.615Z</time>
      </trkpt>
      <trkpt lat="46.79221" lon="-1.07601">
        <ele>94</ele>
        <time>2024-10-19T10:23:37.422Z</time>
      </trkpt>
      <trkpt lat="46.79317" lon="-1.07712">
        <ele>93.6</ele>
        <time>2024-10-19T10:23:57.534Z</time>
      </trkpt>
      <trkpt lat="46.79335" lon="-1.07734">
        <ele>94</ele>
        <time>2024-10-19T10:24:02.253Z</time>
      </trkpt>
      <trkpt lat="46.79347" lon="-1.0775">
        <ele>94.5</ele>
        <time>2024-10-19T10:24:06.055Z</time>
      </trkpt>
      <trkpt lat="46.79406" lon="-1.07866">
        <ele>96</ele>
        <time>2024-10-19T10:24:25.554Z</time>
      </trkpt>
      <trkpt lat="46.79414" lon="-1.0788">
        <ele>96</ele>
        <time>2024-10-19T10:24:27.668Z</time>
        <extensions>
          <visugpx:TrkExtension xmlns:visugpx="https://www.visugpx.com/editgpx/">
            <visugpx:node>8</visugpx:node>
            </visugpx:TrkExtension>
        </extensions>
      </trkpt>
      <trkpt lat="46.79477" lon="-1.0799">
        <ele>97.1</ele>
        <time>2024-10-19T10:24:46.243Z</time>
      </trkpt>
      <trkpt lat="46.79593" lon="-1.08187">
        <ele>98</ele>
        <time>2024-10-19T10:25:17.887Z</time>
      </trkpt>
      <trkpt lat="46.79684" lon="-1.08353">
        <ele>94.1</ele>
        <time>2024-10-19T10:25:37.415Z</time>
      </trkpt>
      <trkpt lat="46.79811" lon="-1.08573">
        <ele>88</ele>
        <time>2024-10-19T10:26:02.988Z</time>
      </trkpt>
      <trkpt lat="46.79853" lon="-1.08648">
        <ele>87</ele>
        <time>2024-10-19T10:26:12.791Z</time>
      </trkpt>
      <trkpt lat="46.79862" lon="-1.08668">
        <ele>87</ele>
        <time>2024-10-19T10:26:15.566Z</time>
      </trkpt>
      <trkpt lat="46.79892" lon="-1.0874">
        <ele>86.3</ele>
        <time>2024-10-19T10:26:24.314Z</time>
      </trkpt>
      <trkpt lat="46.79914" lon="-1.08783">
        <ele>86</ele>
        <time>2024-10-19T10:26:30.086Z</time>
      </trkpt>
      <trkpt lat="46.7994" lon="-1.08829">
        <ele>86</ele>
        <time>2024-10-19T10:26:37.004Z</time>
      </trkpt>
      <trkpt lat="46.79954" lon="-1.08859">
        <ele>86</ele>
        <time>2024-10-19T10:26:41.214Z</time>
      </trkpt>
      <trkpt lat="46.79961" lon="-1.08886">
        <ele>86</ele>
        <time>2024-10-19T10:26:44.562Z</time>
      </trkpt>
      <trkpt lat="46.79971" lon="-1.08948">
        <ele>86</ele>
        <time>2024-10-19T10:26:51.948Z</time>
      </trkpt>
      <trkpt lat="46.79973" lon="-1.08977">
        <ele>85.8</ele>
        <time>2024-10-19T10:26:55.030Z</time>
      </trkpt>
      <trkpt lat="46.79966" lon="-1.09104">
        <ele>85</ele>
        <time>2024-10-19T10:27:08.605Z</time>
      </trkpt>
      <trkpt lat="46.79965" lon="-1.09137">
        <ele>85</ele>
        <time>2024-10-19T10:27:12.436Z</time>
      </trkpt>
      <trkpt lat="46.79965" lon="-1.09168">
        <ele>85</ele>
        <time>2024-10-19T10:27:16.030Z</time>
      </trkpt>
      <trkpt lat="46.79974" lon="-1.09244">
        <ele>84</ele>
        <time>2024-10-19T10:27:23.581Z</time>
      </trkpt>
      <trkpt lat="46.79991" lon="-1.0931">
        <ele>86</ele>
        <time>2024-10-19T10:27:36.399Z</time>
      </trkpt>
      <trkpt lat="46.80001" lon="-1.09333">
        <ele>86</ele>
        <time>2024-10-19T10:27:39.559Z</time>
      </trkpt>
      <trkpt lat="46.80017" lon="-1.09362">
        <ele>87</ele>
        <time>2024-10-19T10:27:46.150Z</time>
      </trkpt>
      <trkpt lat="46.80072" lon="-1.09428">
        <ele>88.6</ele>
        <time>2024-10-19T10:28:01.323Z</time>
      </trkpt>
      <trkpt lat="46.80098" lon="-1.09467">
        <ele>89.4</ele>
        <time>2024-10-19T10:28:09.179Z</time>
      </trkpt>
      <trkpt lat="46.80113" lon="-1.09496">
        <ele>90</ele>
        <time>2024-10-19T10:28:14.580Z</time>
      </trkpt>
      <trkpt lat="46.80124" lon="-1.09536">
        <ele>89.9</ele>
        <time>2024-10-19T10:28:19.422Z</time>
      </trkpt>
      <trkpt lat="46.80137" lon="-1.09574">
        <ele>88.4</ele>
        <time>2024-10-19T10:28:22.675Z</time>
      </trkpt>
      <trkpt lat="46.8015" lon="-1.096">
        <ele>87.9</ele>
        <time>2024-10-19T10:28:25.731Z</time>
      </trkpt>
      <trkpt lat="46.80164" lon="-1.09628">
        <ele>86.8</ele>
        <time>2024-10-19T10:28:28.483Z</time>
      </trkpt>
      <trkpt lat="46.80217" lon="-1.09707">
        <ele>83.2</ele>
        <time>2024-10-19T10:28:37.191Z</time>
      </trkpt>
      <trkpt lat="46.80233" lon="-1.09735">
        <ele>82.7</ele>
        <time>2024-10-19T10:28:40.729Z</time>
      </trkpt>
      <trkpt lat="46.80255" lon="-1.09783">
        <ele>83.2</ele>
        <time>2024-10-19T10:28:48.321Z</time>
      </trkpt>
      <trkpt lat="46.80262" lon="-1.09807">
        <ele>84.1</ele>
        <time>2024-10-19T10:28:53.625Z</time>
      </trkpt>
      <trkpt lat="46.80269" lon="-1.09857">
        <ele>86.5</ele>
        <time>2024-10-19T10:29:06.837Z</time>
      </trkpt>
      <trkpt lat="46.80272" lon="-1.09941">
        <ele>89.6</ele>
        <time>2024-10-19T10:29:24.712Z</time>
      </trkpt>
      <trkpt lat="46.80277" lon="-1.0998">
        <ele>91.3</ele>
        <time>2024-10-19T10:29:34.173Z</time>
      </trkpt>
      <trkpt lat="46.80292" lon="-1.10055">
        <ele>94</ele>
        <time>2024-10-19T10:29:50.075Z</time>
      </trkpt>
      <trkpt lat="46.80316" lon="-1.10163">
        <ele>96.9</ele>
        <time>2024-10-19T10:30:09.712Z</time>
      </trkpt>
      <trkpt lat="46.80325" lon="-1.1023">
        <ele>97</ele>
        <time>2024-10-19T10:30:17.793Z</time>
      </trkpt>
      <trkpt lat="46.8033" lon="-1.10259">
        <ele>97</ele>
        <time>2024-10-19T10:30:21.260Z</time>
      </trkpt>
      <trkpt lat="46.80357" lon="-1.10341">
        <ele>97</ele>
        <time>2024-10-19T10:30:31.811Z</time>
      </trkpt>
      <trkpt lat="46.8039" lon="-1.10456">
        <ele>96</ele>
        <time>2024-10-19T10:30:44.799Z</time>
      </trkpt>
      <trkpt lat="46.80412" lon="-1.1055">
        <ele>96</ele>
        <time>2024-10-19T10:30:56.318Z</time>
        <extensions>
          <visugpx:TrkExtension xmlns:visugpx="https://www.visugpx.com/editgpx/">
            <visugpx:node>9</visugpx:node>
            </visugpx:TrkExtension>
        </extensions>
      </trkpt>
      <trkpt lat="46.80419" lon="-1.10581">
        <ele>96.8</ele>
        <time>2024-10-19T10:31:01.863Z</time>
      </trkpt>
      <trkpt lat="46.80443" lon="-1.10674">
        <ele>97</ele>
        <time>2024-10-19T10:31:13.717Z</time>
      </trkpt>
      <trkpt lat="46.80454" lon="-1.10708">
        <ele>96.3</ele>
        <time>2024-10-19T10:31:17.159Z</time>
      </trkpt>
      <trkpt lat="46.80466" lon="-1.10736">
        <ele>95.6</ele>
        <time>2024-10-19T10:31:20.094Z</time>
      </trkpt>
      <trkpt lat="46.80529" lon="-1.10861">
        <ele>93</ele>
        <time>2024-10-19T10:31:34.613Z</time>
      </trkpt>
      <trkpt lat="46.80546" lon="-1.10899">
        <ele>92.8</ele>
        <time>2024-10-19T10:31:39.570Z</time>
      </trkpt>
      <trkpt lat="46.80552" lon="-1.10909">
        <ele>92.4</ele>
        <time>2024-10-19T10:31:40.644Z</time>
      </trkpt>
      <trkpt lat="46.8056" lon="-1.10917">
        <ele>92</ele>
        <time>2024-10-19T10:31:41.809Z</time>
      </trkpt>
      <trkpt lat="46.80574" lon="-1.10926">
        <ele>92</ele>
        <time>2024-10-19T10:31:44.400Z</time>
      </trkpt>
      <trkpt lat="46.80632" lon="-1.1094">
        <ele>92.6</ele>
        <time>2024-10-19T10:31:55.409Z</time>
      </trkpt>
      <trkpt lat="46.8065" lon="-1.10949">
        <ele>93</ele>
        <time>2024-10-19T10:31:59.400Z</time>
      </trkpt>
      <trkpt lat="46.80664" lon="-1.10961">
        <ele>93</ele>
        <time>2024-10-19T10:32:02.150Z</time>
      </trkpt>
      <trkpt lat="46.80701" lon="-1.11001">
        <ele>94.5</ele>
        <time>2024-10-19T10:32:13.149Z</time>
      </trkpt>
      <trkpt lat="46.80785" lon="-1.111">
        <ele>98.7</ele>
        <time>2024-10-19T10:32:40.946Z</time>
      </trkpt>
      <trkpt lat="46.80801" lon="-1.11117">
        <ele>99</ele>
        <time>2024-10-19T10:32:44.845Z</time>
      </trkpt>
      <trkpt lat="46.80815" lon="-1.11127">
        <ele>99</ele>
        <time>2024-10-19T10:32:47.485Z</time>
      </trkpt>
      <trkpt lat="46.80835" lon="-1.11137">
        <ele>99</ele>
        <time>2024-10-19T10:32:51.065Z</time>
      </trkpt>
      <trkpt lat="46.80968" lon="-1.11191">
        <ele>101</ele>
        <time>2024-10-19T10:33:18.081Z</time>
      </trkpt>
      <trkpt lat="46.81015" lon="-1.11208">
        <ele>102</ele>
        <time>2024-10-19T10:33:28.199Z</time>
      </trkpt>
      <trkpt lat="46.81034" lon="-1.1121">
        <ele>102</ele>
        <time>2024-10-19T10:33:31.426Z</time>
      </trkpt>
      <trkpt lat="46.81056" lon="-1.11207">
        <ele>102</ele>
        <time>2024-10-19T10:33:35.169Z</time>
      </trkpt>
      <trkpt lat="46.81111" lon="-1.11185">
        <ele>103</ele>
        <time>2024-10-19T10:33:46.693Z</time>
      </trkpt>
      <trkpt lat="46.81153" lon="-1.11171">
        <ele>103.4</ele>
        <time>2024-10-19T10:33:54.685Z</time>
      </trkpt>
      <trkpt lat="46.81165" lon="-1.11174">
        <ele>103.7</ele>
        <time>2024-10-19T10:33:57.343Z</time>
      </trkpt>
      <trkpt lat="46.81274" lon="-1.11226">
        <ele>104</ele>
        <time>2024-10-19T10:34:17.260Z</time>
      </trkpt>
      <trkpt lat="46.81328" lon="-1.11254">
        <ele>104.8</ele>
        <time>2024-10-19T10:34:28.413Z</time>
      </trkpt>
      <trkpt lat="46.81361" lon="-1.11272">
        <ele>105</ele>
        <time>2024-10-19T10:34:34.717Z</time>
      </trkpt>
      <trkpt lat="46.81407" lon="-1.11301">
        <ele>106</ele>
        <time>2024-10-19T10:34:45.108Z</time>
      </trkpt>
      <trkpt lat="46.81431" lon="-1.11312">
        <ele>106</ele>
        <time>2024-10-19T10:34:49.368Z</time>
      </trkpt>
      <trkpt lat="46.81546" lon="-1.11354">
        <ele>106.3</ele>
        <time>2024-10-19T10:35:09.941Z</time>
      </trkpt>
      <trkpt lat="46.81566" lon="-1.11364">
        <ele>106</ele>
        <time>2024-10-19T10:35:13.089Z</time>
      </trkpt>
      <trkpt lat="46.81579" lon="-1.1137">
        <ele>106</ele>
        <time>2024-10-19T10:35:15.398Z</time>
      </trkpt>
      <trkpt lat="46.81642" lon="-1.11407">
        <ele>104.9</ele>
        <time>2024-10-19T10:35:25.336Z</time>
        <extensions>
          <visugpx:TrkExtension xmlns:visugpx="https://www.visugpx.com/editgpx/">
            <visugpx:node>10</visugpx:node>
            </visugpx:TrkExtension>
        </extensions>
      </trkpt>
      <trkpt lat="46.81756" lon="-1.11473">
        <ele>101</ele>
        <time>2024-10-19T10:35:41.150Z</time>
      </trkpt>
      <trkpt lat="46.81911" lon="-1.11554">
        <ele>99</ele>
        <time>2024-10-19T10:36:06.104Z</time>
      </trkpt>
      <trkpt lat="46.81986" lon="-1.11603">
        <ele>98</ele>
        <time>2024-10-19T10:36:18.556Z</time>
      </trkpt>
      <trkpt lat="46.82006" lon="-1.11617">
        <ele>98</ele>
        <time>2024-10-19T10:36:22.312Z</time>
      </trkpt>
      <trkpt lat="46.8207" lon="-1.11661">
        <ele>98</ele>
        <time>2024-10-19T10:36:34.293Z</time>
      </trkpt>
      <trkpt lat="46.8212" lon="-1.11695">
        <ele>97</ele>
        <time>2024-10-19T10:36:42.234Z</time>
      </trkpt>
      <trkpt lat="46.82193" lon="-1.11762">
        <ele>95.1</ele>
        <time>2024-10-19T10:36:54.248Z</time>
      </trkpt>
      <trkpt lat="46.82223" lon="-1.11778">
        <ele>95</ele>
        <time>2024-10-19T10:36:59.501Z</time>
      </trkpt>
      <trkpt lat="46.82244" lon="-1.11791">
        <ele>94.6</ele>
        <time>2024-10-19T10:37:02.801Z</time>
      </trkpt>
      <trkpt lat="46.8226" lon="-1.11805">
        <ele>94</ele>
        <time>2024-10-19T10:37:05.199Z</time>
      </trkpt>
      <trkpt lat="46.82306" lon="-1.11862">
        <ele>93</ele>
        <time>2024-10-19T10:37:13.998Z</time>
      </trkpt>
      <trkpt lat="46.82345" lon="-1.11916">
        <ele>92</ele>
        <time>2024-10-19T10:37:21.702Z</time>
      </trkpt>
      <trkpt lat="46.82365" lon="-1.11944">
        <ele>91</ele>
        <time>2024-10-19T10:37:25.159Z</time>
      </trkpt>
      <trkpt lat="46.82371" lon="-1.11952">
        <ele>90.9</ele>
        <time>2024-10-19T10:37:26.389Z</time>
      </trkpt>
      <trkpt lat="46.82391" lon="-1.1198">
        <ele>89.7</ele>
        <time>2024-10-19T10:37:29.669Z</time>
      </trkpt>
      <trkpt lat="46.82401" lon="-1.11995">
        <ele>89.5</ele>
        <time>2024-10-19T10:37:31.807Z</time>
      </trkpt>
      <trkpt lat="46.82438" lon="-1.12048">
        <ele>88.4</ele>
        <time>2024-10-19T10:37:39.076Z</time>
      </trkpt>
      <trkpt lat="46.82475" lon="-1.12105">
        <ele>86.3</ele>
        <time>2024-10-19T10:37:45.643Z</time>
      </trkpt>
      <trkpt lat="46.8248" lon="-1.12112">
        <ele>86.3</ele>
        <time>2024-10-19T10:37:46.815Z</time>
      </trkpt>
      <trkpt lat="46.82522" lon="-1.12173">
        <ele>85.8</ele>
        <time>2024-10-19T10:37:56.092Z</time>
      </trkpt>
      <trkpt lat="46.82531" lon="-1.12187">
        <ele>85.2</ele>
        <time>2024-10-19T10:37:57.623Z</time>
      </trkpt>
      <trkpt lat="46.82545" lon="-1.12207">
        <ele>85</ele>
        <time>2024-10-19T10:38:00.642Z</time>
      </trkpt>
      <trkpt lat="46.82557" lon="-1.12234">
        <ele>85</ele>
        <time>2024-10-19T10:38:04.374Z</time>
      </trkpt>
      <trkpt lat="46.82565" lon="-1.12252">
        <ele>85.3</ele>
        <time>2024-10-19T10:38:07.435Z</time>
      </trkpt>
      <trkpt lat="46.82572" lon="-1.12264">
        <ele>85.3</ele>
        <time>2024-10-19T10:38:09.263Z</time>
      </trkpt>
      <trkpt lat="46.8259" lon="-1.12298">
        <ele>85</ele>
        <time>2024-10-19T10:38:13.799Z</time>
      </trkpt>
      <trkpt lat="46.82594" lon="-1.12305">
        <ele>85</ele>
        <time>2024-10-19T10:38:14.857Z</time>
      </trkpt>
      <trkpt lat="46.82628" lon="-1.12368">
        <ele>85.2</ele>
        <time>2024-10-19T10:38:24.488Z</time>
      </trkpt>
      <trkpt lat="46.82668" lon="-1.12442">
        <ele>85.1</ele>
        <time>2024-10-19T10:38:35.259Z</time>
      </trkpt>
      <trkpt lat="46.82679" lon="-1.1246">
        <ele>85</ele>
        <time>2024-10-19T10:38:37.903Z</time>
      </trkpt>
      <trkpt lat="46.82684" lon="-1.12468">
        <ele>85</ele>
        <time>2024-10-19T10:38:39.159Z</time>
      </trkpt>
      <trkpt lat="46.82676" lon="-1.12487">
        <ele>85</ele>
        <time>2024-10-19T10:38:41.744Z</time>
      </trkpt>
      <trkpt lat="46.82658" lon="-1.12499">
        <ele>85.3</ele>
        <time>2024-10-19T10:38:45.644Z</time>
      </trkpt>
      <trkpt lat="46.82607" lon="-1.12527">
        <ele>85</ele>
        <time>2024-10-19T10:38:54.410Z</time>
      </trkpt>
      <trkpt lat="46.82577" lon="-1.12547">
        <ele>85.8</ele>
        <time>2024-10-19T10:39:01.578Z</time>
      </trkpt>
      <trkpt lat="46.82559" lon="-1.12566">
        <ele>86</ele>
        <time>2024-10-19T10:39:05.686Z</time>
      </trkpt>
      <trkpt lat="46.82551" lon="-1.12575">
        <ele>86</ele>
        <time>2024-10-19T10:39:07.396Z</time>
      </trkpt>
      <trkpt lat="46.82546" lon="-1.1258">
        <ele>86</ele>
        <time>2024-10-19T10:39:08.422Z</time>
      </trkpt>
      <trkpt lat="46.82497" lon="-1.12634">
        <ele>86.3</ele>
        <time>2024-10-19T10:39:19.321Z</time>
      </trkpt>
      <trkpt lat="46.82486" lon="-1.12648">
        <ele>86.5</ele>
        <time>2024-10-19T10:39:22.152Z</time>
      </trkpt>
      <trkpt lat="46.82474" lon="-1.12669">
        <ele>86.9</ele>
        <time>2024-10-19T10:39:26.095Z</time>
      </trkpt>
      <trkpt lat="46.82473" lon="-1.12695">
        <ele>87</ele>
        <time>2024-10-19T10:39:29.282Z</time>
      </trkpt>
      <trkpt lat="46.82476" lon="-1.12739">
        <ele>87.9</ele>
        <time>2024-10-19T10:39:36.278Z</time>
      </trkpt>
      <trkpt lat="46.82476" lon="-1.12763">
        <ele>87.9</ele>
        <time>2024-10-19T10:39:39.060Z</time>
      </trkpt>
      <trkpt lat="46.82472" lon="-1.12786">
        <ele>88</ele>
        <time>2024-10-19T10:39:41.980Z</time>
      </trkpt>
      <trkpt lat="46.82449" lon="-1.12846">
        <ele>87.8</ele>
        <time>2024-10-19T10:39:49.640Z</time>
      </trkpt>
      <trkpt lat="46.82442" lon="-1.12873">
        <ele>88.1</ele>
        <time>2024-10-19T10:39:53.535Z</time>
      </trkpt>
      <trkpt lat="46.82441" lon="-1.12927">
        <ele>88</ele>
        <time>2024-10-19T10:39:59.638Z</time>
      </trkpt>
      <trkpt lat="46.82443" lon="-1.1296">
        <ele>88.1</ele>
        <time>2024-10-19T10:40:03.645Z</time>
      </trkpt>
      <trkpt lat="46.82451" lon="-1.13001">
        <ele>88</ele>
        <time>2024-10-19T10:40:08.430Z</time>
      </trkpt>
      <trkpt lat="46.82467" lon="-1.13064">
        <ele>88.4</ele>
        <time>2024-10-19T10:40:16.910Z</time>
      </trkpt>
      <trkpt lat="46.82477" lon="-1.13142">
        <ele>89.1</ele>
        <time>2024-10-19T10:40:27.362Z</time>
      </trkpt>
      <trkpt lat="46.82486" lon="-1.13209">
        <ele>90.5</ele>
        <time>2024-10-19T10:40:38.193Z</time>
      </trkpt>
      <trkpt lat="46.8249" lon="-1.13241">
        <ele>91</ele>
        <time>2024-10-19T10:40:42.937Z</time>
      </trkpt>
      <trkpt lat="46.82504" lon="-1.13556">
        <ele>96</ele>
        <time>2024-10-19T10:41:29.320Z</time>
      </trkpt>
      <trkpt lat="46.82504" lon="-1.1357">
        <ele>96</ele>
        <time>2024-10-19T10:41:30.942Z</time>
      </trkpt>
      <trkpt lat="46.8251" lon="-1.13634">
        <ele>96</ele>
        <time>2024-10-19T10:41:38.429Z</time>
      </trkpt>
      <trkpt lat="46.82547" lon="-1.13796">
        <ele>93</ele>
        <time>2024-10-19T10:41:54.244Z</time>
      </trkpt>
      <trkpt lat="46.82564" lon="-1.1384">
        <ele>91.8</ele>
        <time>2024-10-19T10:41:58.605Z</time>
      </trkpt>
      <trkpt lat="46.82607" lon="-1.13922">
        <ele>90.7</ele>
        <time>2024-10-19T10:42:09.008Z</time>
      </trkpt>
      <trkpt lat="46.82638" lon="-1.13997">
        <ele>90.1</ele>
        <time>2024-10-19T10:42:18.270Z</time>
      </trkpt>
      <trkpt lat="46.82686" lon="-1.14094">
        <ele>88.4</ele>
        <time>2024-10-19T10:42:29.808Z</time>
      </trkpt>
      <trkpt lat="46.82718" lon="-1.14169">
        <ele>86.9</ele>
        <time>2024-10-19T10:42:38.049Z</time>
      </trkpt>
      <trkpt lat="46.82737" lon="-1.14218">
        <ele>86.5</ele>
        <time>2024-10-19T10:42:43.983Z</time>
      </trkpt>
      <trkpt lat="46.82751" lon="-1.14263">
        <ele>85.5</ele>
        <time>2024-10-19T10:42:48.421Z</time>
      </trkpt>
      <trkpt lat="46.8276" lon="-1.14326">
        <ele>84.3</ele>
        <time>2024-10-19T10:42:54.306Z</time>
      </trkpt>
      <trkpt lat="46.82769" lon="-1.14368">
        <ele>83.4</ele>
        <time>2024-10-19T10:42:58.247Z</time>
      </trkpt>
      <trkpt lat="46.82785" lon="-1.14405">
        <ele>82.6</ele>
        <time>2024-10-19T10:43:02.266Z</time>
      </trkpt>
      <trkpt lat="46.82834" lon="-1.14482">
        <ele>81.3</ele>
        <time>2024-10-19T10:43:12.631Z</time>
      </trkpt>
      <trkpt lat="46.8286" lon="-1.14528">
        <ele>81</ele>
        <time>2024-10-19T10:43:19.091Z</time>
      </trkpt>
      <trkpt lat="46.82883" lon="-1.1458">
        <ele>82.6</ele>
        <time>2024-10-19T10:43:29.852Z</time>
      </trkpt>
      <trkpt lat="46.82893" lon="-1.14612">
        <ele>82.1</ele>
        <time>2024-10-19T10:43:33.242Z</time>
      </trkpt>
      <trkpt lat="46.82918" lon="-1.147">
        <ele>81.8</ele>
        <time>2024-10-19T10:43:43.819Z</time>
      </trkpt>
      <trkpt lat="46.82932" lon="-1.14745">
        <ele>81.6</ele>
        <time>2024-10-19T10:43:49.241Z</time>
      </trkpt>
      <trkpt lat="46.82941" lon="-1.14786">
        <ele>81.8</ele>
        <time>2024-10-19T10:43:54.572Z</time>
      </trkpt>
      <trkpt lat="46.82942" lon="-1.14796">
        <ele>81.9</ele>
        <time>2024-10-19T10:43:55.925Z</time>
        <extensions>
          <visugpx:TrkExtension xmlns:visugpx="https://www.visugpx.com/editgpx/">
            <visugpx:node>11</visugpx:node>
            </visugpx:TrkExtension>
        </extensions>
      </trkpt>
      <trkpt lat="46.82953" lon="-1.14882">
        <ele>81.3</ele>
        <time>2024-10-19T10:44:05.171Z</time>
      </trkpt>
      <trkpt lat="46.82979" lon="-1.15027">
        <ele>81.5</ele>
        <time>2024-10-19T10:44:22.870Z</time>
      </trkpt>
      <trkpt lat="46.82989" lon="-1.1507">
        <ele>82.2</ele>
        <time>2024-10-19T10:44:29.498Z</time>
      </trkpt>
      <trkpt lat="46.82998" lon="-1.15084">
        <ele>82.9</ele>
        <time>2024-10-19T10:44:33.547Z</time>
      </trkpt>
      <trkpt lat="46.83012" lon="-1.15098">
        <ele>83.2</ele>
        <time>2024-10-19T10:44:36.981Z</time>
      </trkpt>
      <trkpt lat="46.83044" lon="-1.15122">
        <ele>83.7</ele>
        <time>2024-10-19T10:44:43.977Z</time>
      </trkpt>
      <trkpt lat="46.83055" lon="-1.15136">
        <ele>84</ele>
        <time>2024-10-19T10:44:47.022Z</time>
      </trkpt>
      <trkpt lat="46.83062" lon="-1.15149">
        <ele>84.2</ele>
        <time>2024-10-19T10:44:49.313Z</time>
      </trkpt>
      <trkpt lat="46.83064" lon="-1.15165">
        <ele>84.3</ele>
        <time>2024-10-19T10:44:51.371Z</time>
      </trkpt>
      <trkpt lat="46.83065" lon="-1.15182">
        <ele>84.7</ele>
        <time>2024-10-19T10:44:54.216Z</time>
      </trkpt>
      <trkpt lat="46.83062" lon="-1.15214">
        <ele>85</ele>
        <time>2024-10-19T10:44:58.500Z</time>
      </trkpt>
      <trkpt lat="46.83055" lon="-1.15253">
        <ele>85</ele>
        <time>2024-10-19T10:45:03.172Z</time>
      </trkpt>
      <trkpt lat="46.83046" lon="-1.15341">
        <ele>83.1</ele>
        <time>2024-10-19T10:45:11.059Z</time>
      </trkpt>
      <trkpt lat="46.83043" lon="-1.15399">
        <ele>79.7</ele>
        <time>2024-10-19T10:45:15.104Z</time>
      </trkpt>
      <trkpt lat="46.83044" lon="-1.15407">
        <ele>79</ele>
        <time>2024-10-19T10:45:15.669Z</time>
        <extensions>
          <visugpx:TrkExtension xmlns:visugpx="https://www.visugpx.com/editgpx/">
            <visugpx:node>12</visugpx:node>
            </visugpx:TrkExtension>
        </extensions>
      </trkpt>
      <trkpt lat="46.83046" lon="-1.1543">
        <ele>77</ele>
        <time>2024-10-19T10:45:17.281Z</time>
      </trkpt>
      <trkpt lat="46.83055" lon="-1.15458">
        <ele>75.5</ele>
        <time>2024-10-19T10:45:19.433Z</time>
      </trkpt>
      <trkpt lat="46.83069" lon="-1.15504">
        <ele>74.1</ele>
        <time>2024-10-19T10:45:23.592Z</time>
      </trkpt>
      <trkpt lat="46.83077" lon="-1.15528">
        <ele>75</ele>
        <time>2024-10-19T10:45:28.939Z</time>
      </trkpt>
      <trkpt lat="46.83057" lon="-1.1554">
        <ele>76.3</ele>
        <time>2024-10-19T10:45:36.228Z</time>
      </trkpt>
      <trkpt lat="46.83038" lon="-1.15561">
        <ele>78.2</ele>
        <time>2024-10-19T10:45:46.702Z</time>
      </trkpt>
      <trkpt lat="46.83028" lon="-1.15571">
        <ele>78.6</ele>
        <time>2024-10-19T10:45:49.611Z</time>
      </trkpt>
      <trkpt lat="46.83011" lon="-1.15582">
        <ele>78.3</ele>
        <time>2024-10-19T10:45:52.334Z</time>
      </trkpt>
      <trkpt lat="46.8299" lon="-1.15569">
        <ele>77.1</ele>
        <time>2024-10-19T10:45:54.868Z</time>
      </trkpt>
      <trkpt lat="46.82975" lon="-1.15558">
        <ele>76.2</ele>
        <time>2024-10-19T10:45:56.720Z</time>
      </trkpt>
      <trkpt lat="46.82944" lon="-1.15557">
        <ele>75</ele>
        <time>2024-10-19T10:46:00.517Z</time>
      </trkpt>
      <trkpt lat="46.82916" lon="-1.15571">
        <ele>75.6</ele>
        <time>2024-10-19T10:46:06.676Z</time>
      </trkpt>
      <trkpt lat="46.82912" lon="-1.15598">
        <ele>76.7</ele>
        <time>2024-10-19T10:46:12.888Z</time>
      </trkpt>
      <trkpt lat="46.82908" lon="-1.15606">
        <ele>77.1</ele>
        <time>2024-10-19T10:46:15.139Z</time>
      </trkpt>
      <trkpt lat="46.82901" lon="-1.15613">
        <ele>77.6</ele>
        <time>2024-10-19T10:46:17.954Z</time>
      </trkpt>
      <trkpt lat="46.82892" lon="-1.15617">
        <ele>78.1</ele>
        <time>2024-10-19T10:46:20.849Z</time>
      </trkpt>
      <trkpt lat="46.82863" lon="-1.15628">
        <ele>78.6</ele>
        <time>2024-10-19T10:46:26.849Z</time>
      </trkpt>
      <trkpt lat="46.82847" lon="-1.15626">
        <ele>78.3</ele>
        <time>2024-10-19T10:46:29.151Z</time>
      </trkpt>
      <trkpt lat="46.82842" lon="-1.1564">
        <ele>78.3</ele>
        <time>2024-10-19T10:46:30.981Z</time>
      </trkpt>
      <trkpt lat="46.82835" lon="-1.15673">
        <ele>79</ele>
        <time>2024-10-19T10:46:36.439Z</time>
      </trkpt>
      <trkpt lat="46.82834" lon="-1.15687">
        <ele>79</ele>
        <time>2024-10-19T10:46:38.070Z</time>
        <extensions>
          <visugpx:TrkExtension xmlns:visugpx="https://www.visugpx.com/editgpx/">
            <visugpx:node>13</visugpx:node>
            </visugpx:TrkExtension>
        </extensions>
      </trkpt>
      <trkpt lat="46.82832" lon="-1.15708">
        <ele>79</ele>
        <time>2024-10-19T10:46:40.528Z</time>
      </trkpt>
      <trkpt lat="46.82829" lon="-1.15767">
        <ele>79.1</ele>
        <time>2024-10-19T10:46:47.549Z</time>
      </trkpt>
      <trkpt lat="46.82828" lon="-1.15784">
        <ele>79.2</ele>
        <time>2024-10-19T10:46:49.699Z</time>
      </trkpt>
      <trkpt lat="46.82827" lon="-1.15803">
        <ele>79.2</ele>
        <time>2024-10-19T10:46:51.908Z</time>
      </trkpt>
      <trkpt lat="46.82814" lon="-1.1595">
        <ele>80.7</ele>
        <time>2024-10-19T10:47:11.818Z</time>
      </trkpt>
      <trkpt lat="46.82812" lon="-1.15979">
        <ele>80.8</ele>
        <time>2024-10-19T10:47:15.364Z</time>
      </trkpt>
      <trkpt lat="46.82813" lon="-1.15996">
        <ele>81</ele>
        <time>2024-10-19T10:47:17.713Z</time>
      </trkpt>
      <trkpt lat="46.82816" lon="-1.16015">
        <ele>81.3</ele>
        <time>2024-10-19T10:47:20.557Z</time>
      </trkpt>
      <trkpt lat="46.82823" lon="-1.16038">
        <ele>81.4</ele>
        <time>2024-10-19T10:47:23.643Z</time>
      </trkpt>
      <trkpt lat="46.82849" lon="-1.16088">
        <ele>81.5</ele>
        <time>2024-10-19T10:47:31.086Z</time>
      </trkpt>
      <trkpt lat="46.82867" lon="-1.1615">
        <ele>82.2</ele>
        <time>2024-10-19T10:47:40.171Z</time>
      </trkpt>
      <trkpt lat="46.82881" lon="-1.16212">
        <ele>83.5</ele>
        <time>2024-10-19T10:47:50.425Z</time>
      </trkpt>
      <trkpt lat="46.82881" lon="-1.16247">
        <ele>84</ele>
        <time>2024-10-19T10:47:55.441Z</time>
      </trkpt>
      <trkpt lat="46.82875" lon="-1.16305">
        <ele>85</ele>
        <time>2024-10-19T10:48:04.230Z</time>
      </trkpt>
      <trkpt lat="46.82872" lon="-1.16348">
        <ele>85.7</ele>
        <time>2024-10-19T10:48:10.617Z</time>
      </trkpt>
      <trkpt lat="46.82874" lon="-1.16506">
        <ele>88.5</ele>
        <time>2024-10-19T10:48:34.554Z</time>
      </trkpt>
      <trkpt lat="46.82879" lon="-1.16766">
        <ele>92</ele>
        <time>2024-10-19T10:49:11.348Z</time>
      </trkpt>
      <trkpt lat="46.82881" lon="-1.16785">
        <ele>92.2</ele>
        <time>2024-10-19T10:49:13.941Z</time>
      </trkpt>
      <trkpt lat="46.82885" lon="-1.16804">
        <ele>92.8</ele>
        <time>2024-10-19T10:49:17.674Z</time>
      </trkpt>
      <trkpt lat="46.82894" lon="-1.16833">
        <ele>93</ele>
        <time>2024-10-19T10:49:21.712Z</time>
      </trkpt>
      <trkpt lat="46.82913" lon="-1.16867">
        <ele>89.9</ele>
        <time>2024-10-19T10:49:24.765Z</time>
      </trkpt>
      <trkpt lat="46.82947" lon="-1.1692">
        <ele>89.9</ele>
        <time>2024-10-19T10:49:33.185Z</time>
      </trkpt>
      <trkpt lat="46.82965" lon="-1.16955">
        <ele>93.5</ele>
        <time>2024-10-19T10:49:53.935Z</time>
      </trkpt>
      <trkpt lat="46.82982" lon="-1.17003">
        <ele>93</ele>
        <time>2024-10-19T10:49:59.474Z</time>
      </trkpt>
      <trkpt lat="46.82984" lon="-1.1701">
        <ele>93.2</ele>
        <time>2024-10-19T10:50:00.805Z</time>
      </trkpt>
      <trkpt lat="46.83067" lon="-1.17273">
        <ele>92.5</ele>
        <time>2024-10-19T10:50:33.274Z</time>
      </trkpt>
      <trkpt lat="46.83083" lon="-1.17336">
        <ele>91.9</ele>
        <time>2024-10-19T10:50:40.189Z</time>
      </trkpt>
      <trkpt lat="46.83088" lon="-1.17372">
        <ele>91</ele>
        <time>2024-10-19T10:50:43.334Z</time>
      </trkpt>
      <trkpt lat="46.83087" lon="-1.17418">
        <ele>90.1</ele>
        <time>2024-10-19T10:50:47.497Z</time>
      </trkpt>
      <trkpt lat="46.83078" lon="-1.17513">
        <ele>89</ele>
        <time>2024-10-19T10:50:57.055Z</time>
        <extensions>
          <visugpx:TrkExtension xmlns:visugpx="https://www.visugpx.com/editgpx/">
            <visugpx:node>14</visugpx:node>
            </visugpx:TrkExtension>
        </extensions>
      </trkpt>
      <trkpt lat="46.83076" lon="-1.1753">
        <ele>89</ele>
        <time>2024-10-19T10:50:59.054Z</time>
      </trkpt>
      <trkpt lat="46.83075" lon="-1.17575">
        <ele>88.7</ele>
        <time>2024-10-19T10:51:03.824Z</time>
      </trkpt>
      <trkpt lat="46.83079" lon="-1.17627">
        <ele>87.9</ele>
        <time>2024-10-19T10:51:08.801Z</time>
      </trkpt>
      <trkpt lat="46.83083" lon="-1.17663">
        <ele>87.1</ele>
        <time>2024-10-19T10:51:12.013Z</time>
      </trkpt>
      <trkpt lat="46.83102" lon="-1.17767">
        <ele>85.3</ele>
        <time>2024-10-19T10:51:22.079Z</time>
      </trkpt>
      <trkpt lat="46.83114" lon="-1.17815">
        <ele>85</ele>
        <time>2024-10-19T10:51:27.550Z</time>
      </trkpt>
      <trkpt lat="46.83122" lon="-1.1784">
        <ele>84.9</ele>
        <time>2024-10-19T10:51:30.594Z</time>
      </trkpt>
      <trkpt lat="46.83171" lon="-1.17962">
        <ele>83</ele>
        <time>2024-10-19T10:51:44.355Z</time>
      </trkpt>
      <trkpt lat="46.83184" lon="-1.18004">
        <ele>82.9</ele>
        <time>2024-10-19T10:51:49.541Z</time>
      </trkpt>
      <trkpt lat="46.83201" lon="-1.18064">
        <ele>82</ele>
        <time>2024-10-19T10:51:55.825Z</time>
      </trkpt>
      <trkpt lat="46.83222" lon="-1.18164">
        <ele>81</ele>
        <time>2024-10-19T10:52:06.502Z</time>
      </trkpt>
      <trkpt lat="46.83222" lon="-1.18168">
        <ele>81</ele>
        <time>2024-10-19T10:52:06.966Z</time>
      </trkpt>
      <trkpt lat="46.8323" lon="-1.182">
        <ele>80.7</ele>
        <time>2024-10-19T10:52:10.477Z</time>
      </trkpt>
      <trkpt lat="46.83243" lon="-1.18236">
        <ele>80.5</ele>
        <time>2024-10-19T10:52:14.890Z</time>
      </trkpt>
      <trkpt lat="46.83246" lon="-1.18243">
        <ele>80.7</ele>
        <time>2024-10-19T10:52:16.285Z</time>
      </trkpt>
      <trkpt lat="46.83263" lon="-1.1828">
        <ele>81</ele>
        <time>2024-10-19T10:52:21.974Z</time>
      </trkpt>
      <trkpt lat="46.83265" lon="-1.18288">
        <ele>81</ele>
        <time>2024-10-19T10:52:22.961Z</time>
      </trkpt>
      <trkpt lat="46.83267" lon="-1.18328">
        <ele>81</ele>
        <time>2024-10-19T10:52:27.609Z</time>
      </trkpt>
      <trkpt lat="46.83268" lon="-1.1834">
        <ele>81</ele>
        <time>2024-10-19T10:52:29.010Z</time>
      </trkpt>
      <trkpt lat="46.83272" lon="-1.1836">
        <ele>81</ele>
        <time>2024-10-19T10:52:31.425Z</time>
      </trkpt>
      <trkpt lat="46.83299" lon="-1.18446">
        <ele>77.9</ele>
        <time>2024-10-19T10:52:38.852Z</time>
      </trkpt>
      <trkpt lat="46.83299" lon="-1.18478">
        <ele>75.8</ele>
        <time>2024-10-19T10:52:41.077Z</time>
      </trkpt>
      <trkpt lat="46.83293" lon="-1.18497">
        <ele>75.1</ele>
        <time>2024-10-19T10:52:42.708Z</time>
      </trkpt>
      <trkpt lat="46.83281" lon="-1.18517">
        <ele>74.4</ele>
        <time>2024-10-19T10:52:44.941Z</time>
      </trkpt>
      <trkpt lat="46.83274" lon="-1.18525">
        <ele>74.1</ele>
        <time>2024-10-19T10:52:46.069Z</time>
      </trkpt>
      <trkpt lat="46.83257" lon="-1.18539">
        <ele>74.3</ele>
        <time>2024-10-19T10:52:49.725Z</time>
      </trkpt>
      <trkpt lat="46.83248" lon="-1.18545">
        <ele>74.6</ele>
        <time>2024-10-19T10:52:52.028Z</time>
      </trkpt>
      <trkpt lat="46.83239" lon="-1.18552">
        <ele>74.9</ele>
        <time>2024-10-19T10:52:54.377Z</time>
      </trkpt>
      <trkpt lat="46.83202" lon="-1.18579">
        <ele>76.8</ele>
        <time>2024-10-19T10:53:05.988Z</time>
      </trkpt>
      <trkpt lat="46.83193" lon="-1.18588">
        <ele>77.2</ele>
        <time>2024-10-19T10:53:08.722Z</time>
      </trkpt>
      <trkpt lat="46.83168" lon="-1.18634">
        <ele>78.8</ele>
        <time>2024-10-19T10:53:19.186Z</time>
      </trkpt>
      <trkpt lat="46.8316" lon="-1.18654">
        <ele>79</ele>
        <time>2024-10-19T10:53:22.229Z</time>
      </trkpt>
      <trkpt lat="46.83144" lon="-1.18697">
        <ele>79.3</ele>
        <time>2024-10-19T10:53:28.421Z</time>
      </trkpt>
      <trkpt lat="46.83139" lon="-1.18724">
        <ele>80</ele>
        <time>2024-10-19T10:53:33.214Z</time>
      </trkpt>
      <trkpt lat="46.83143" lon="-1.1876">
        <ele>80</ele>
        <time>2024-10-19T10:53:37.441Z</time>
      </trkpt>
      <trkpt lat="46.8315" lon="-1.18791">
        <ele>80.2</ele>
        <time>2024-10-19T10:53:41.570Z</time>
      </trkpt>
      <trkpt lat="46.83162" lon="-1.18831">
        <ele>81</ele>
        <time>2024-10-19T10:53:48.251Z</time>
      </trkpt>
      <trkpt lat="46.83179" lon="-1.18869">
        <ele>81</ele>
        <time>2024-10-19T10:53:53.513Z</time>
      </trkpt>
      <trkpt lat="46.83232" lon="-1.18974">
        <ele>80.3</ele>
        <time>2024-10-19T10:54:07.575Z</time>
      </trkpt>
      <trkpt lat="46.83252" lon="-1.19006">
        <ele>80.1</ele>
        <time>2024-10-19T10:54:12.292Z</time>
      </trkpt>
      <trkpt lat="46.83287" lon="-1.19051">
        <ele>80.1</ele>
        <time>2024-10-19T10:54:20.188Z</time>
      </trkpt>
      <trkpt lat="46.83299" lon="-1.19068">
        <ele>80</ele>
        <time>2024-10-19T10:54:22.865Z</time>
      </trkpt>
      <trkpt lat="46.8332" lon="-1.19098">
        <ele>79.5</ele>
        <time>2024-10-19T10:54:27.133Z</time>
      </trkpt>
      <trkpt lat="46.83325" lon="-1.19106">
        <ele>79.2</ele>
        <time>2024-10-19T10:54:28.029Z</time>
      </trkpt>
      <trkpt lat="46.83341" lon="-1.1913">
        <ele>79.1</ele>
        <time>2024-10-19T10:54:31.757Z</time>
      </trkpt>
      <trkpt lat="46.83347" lon="-1.19143">
        <ele>79</ele>
        <time>2024-10-19T10:54:33.425Z</time>
        <extensions>
          <visugpx:TrkExtension xmlns:visugpx="https://www.visugpx.com/editgpx/">
            <visugpx:node>15</visugpx:node>
            </visugpx:TrkExtension>
        </extensions>
      </trkpt>
      <trkpt lat="46.83353" lon="-1.19156">
        <ele>79</ele>
        <time>2024-10-19T10:54:35.242Z</time>
      </trkpt>
      <trkpt lat="46.83362" lon="-1.19176">
        <ele>78.7</ele>
        <time>2024-10-19T10:54:37.596Z</time>
      </trkpt>
      <trkpt lat="46.83364" lon="-1.19188">
        <ele>78.2</ele>
        <time>2024-10-19T10:54:38.496Z</time>
      </trkpt>
      <trkpt lat="46.83425" lon="-1.192">
        <ele>78</ele>
        <time>2024-10-19T10:54:48.608Z</time>
      </trkpt>
      <trkpt lat="46.83444" lon="-1.19196">
        <ele>78</ele>
        <time>2024-10-19T10:54:51.860Z</time>
      </trkpt>
      <trkpt lat="46.83464" lon="-1.19189">
        <ele>78.9</ele>
        <time>2024-10-19T10:54:57.480Z</time>
      </trkpt>
      <trkpt lat="46.8351" lon="-1.19169">
        <ele>79.9</ele>
        <time>2024-10-19T10:55:07.528Z</time>
      </trkpt>
      <trkpt lat="46.83513" lon="-1.19159">
        <ele>80.3</ele>
        <time>2024-10-19T10:55:09.839Z</time>
      </trkpt>
      <trkpt lat="46.83538" lon="-1.1912">
        <ele>81.3</ele>
        <time>2024-10-19T10:55:18.067Z</time>
      </trkpt>
      <trkpt lat="46.83567" lon="-1.19054">
        <ele>81</ele>
        <time>2024-10-19T10:55:26.694Z</time>
      </trkpt>
      <trkpt lat="46.83574" lon="-1.19043">
        <ele>80.7</ele>
        <time>2024-10-19T10:55:28.047Z</time>
      </trkpt>
      <trkpt lat="46.83589" lon="-1.19021">
        <ele>79.7</ele>
        <time>2024-10-19T10:55:30.499Z</time>
      </trkpt>
      <trkpt lat="46.83598" lon="-1.19011">
        <ele>78.8</ele>
        <time>2024-10-19T10:55:31.648Z</time>
      </trkpt>
      <trkpt lat="46.83624" lon="-1.1899">
        <ele>76.7</ele>
        <time>2024-10-19T10:55:34.667Z</time>
      </trkpt>
      <trkpt lat="46.83649" lon="-1.18978">
        <ele>75</ele>
        <time>2024-10-19T10:55:37.375Z</time>
      </trkpt>
      <trkpt lat="46.83666" lon="-1.18973">
        <ele>74.1</ele>
        <time>2024-10-19T10:55:39.311Z</time>
      </trkpt>
      <trkpt lat="46.83717" lon="-1.18973">
        <ele>71.4</ele>
        <time>2024-10-19T10:55:44.966Z</time>
      </trkpt>
      <trkpt lat="46.83727" lon="-1.18971">
        <ele>70.5</ele>
        <time>2024-10-19T10:55:45.992Z</time>
      </trkpt>
      <trkpt lat="46.83745" lon="-1.18958">
        <ele>68.6</ele>
        <time>2024-10-19T10:55:48.033Z</time>
      </trkpt>
      <trkpt lat="46.83752" lon="-1.18949">
        <ele>68</ele>
        <time>2024-10-19T10:55:48.994Z</time>
      </trkpt>
      <trkpt lat="46.83768" lon="-1.18917">
        <ele>67</ele>
        <time>2024-10-19T10:55:52.359Z</time>
      </trkpt>
      <trkpt lat="46.8379" lon="-1.18873">
        <ele>68.6</ele>
        <time>2024-10-19T10:56:02.441Z</time>
        <extensions>
          <visugpx:TrkExtension xmlns:visugpx="https://www.visugpx.com/editgpx/">
            <visugpx:node>17</visugpx:node>
            </visugpx:TrkExtension>
        </extensions>
      </trkpt>
      <trkpt lat="46.83807" lon="-1.18848">
        <ele>69.4</ele>
        <time>2024-10-19T10:56:08.242Z</time>
      </trkpt>
      <trkpt lat="46.83821" lon="-1.18835">
        <ele>69.9</ele>
        <time>2024-10-19T10:56:12.096Z</time>
      </trkpt>
      <trkpt lat="46.83863" lon="-1.18806">
        <ele>69.9</ele>
        <time>2024-10-19T10:56:19.964Z</time>
      </trkpt>
      <trkpt lat="46.83902" lon="-1.18778">
        <ele>70.5</ele>
        <time>2024-10-19T10:56:28.407Z</time>
      </trkpt>
      <trkpt lat="46.83913" lon="-1.18767">
        <ele>70.5</ele>
        <time>2024-10-19T10:56:30.665Z</time>
      </trkpt>
      <trkpt lat="46.83939" lon="-1.1874">
        <ele>71.4</ele>
        <time>2024-10-19T10:56:37.913Z</time>
      </trkpt>
      <trkpt lat="46.83964" lon="-1.18707">
        <ele>71.3</ele>
        <time>2024-10-19T10:56:43.461Z</time>
      </trkpt>
      <trkpt lat="46.83988" lon="-1.18669">
        <ele>69.9</ele>
        <time>2024-10-19T10:56:47.766Z</time>
      </trkpt>
      <trkpt lat="46.84007" lon="-1.18633">
        <ele>68.7</ele>
        <time>2024-10-19T10:56:51.579Z</time>
      </trkpt>
      <trkpt lat="46.84014" lon="-1.18621">
        <ele>68.2</ele>
        <time>2024-10-19T10:56:52.830Z</time>
      </trkpt>
      <trkpt lat="46.84039" lon="-1.18567">
        <ele>66.6</ele>
        <time>2024-10-19T10:56:58.407Z</time>
      </trkpt>
      <trkpt lat="46.84063" lon="-1.18524">
        <ele>66.5</ele>
        <time>2024-10-19T10:57:04.680Z</time>
      </trkpt>
      <trkpt lat="46.84323" lon="-1.1814">
        <ele>75.6</ele>
        <time>2024-10-19T10:58:25.349Z</time>
      </trkpt>
      <trkpt lat="46.84384" lon="-1.1805">
        <ele>79.2</ele>
        <time>2024-10-19T10:58:48.392Z</time>
      </trkpt>
      <trkpt lat="46.84392" lon="-1.18038">
        <ele>79.6</ele>
        <time>2024-10-19T10:58:51.206Z</time>
      </trkpt>
      <trkpt lat="46.84429" lon="-1.17982">
        <ele>80</ele>
        <time>2024-10-19T10:59:00.912Z</time>
      </trkpt>
      <trkpt lat="46.8445" lon="-1.17938">
        <ele>78.8</ele>
        <time>2024-10-19T10:59:05.613Z</time>
      </trkpt>
      <trkpt lat="46.84476" lon="-1.17882">
        <ele>76.6</ele>
        <time>2024-10-19T10:59:10.937Z</time>
      </trkpt>
      <trkpt lat="46.84509" lon="-1.1781">
        <ele>73.2</ele>
        <time>2024-10-19T10:59:17.323Z</time>
      </trkpt>
      <trkpt lat="46.84516" lon="-1.17789">
        <ele>72.7</ele>
        <time>2024-10-19T10:59:19.392Z</time>
      </trkpt>
      <trkpt lat="46.84534" lon="-1.17737">
        <ele>69.6</ele>
        <time>2024-10-19T10:59:23.444Z</time>
      </trkpt>
      <trkpt lat="46.84556" lon="-1.17706">
        <ele>66.9</ele>
        <time>2024-10-19T10:59:26.549Z</time>
      </trkpt>
      <trkpt lat="46.84566" lon="-1.17695">
        <ele>65.5</ele>
        <time>2024-10-19T10:59:27.821Z</time>
      </trkpt>
      <trkpt lat="46.84575" lon="-1.17689">
        <ele>63.4</ele>
        <time>2024-10-19T10:59:28.826Z</time>
      </trkpt>
      <trkpt lat="46.8458" lon="-1.17688">
        <ele>62.6</ele>
        <time>2024-10-19T10:59:29.339Z</time>
      </trkpt>
      <trkpt lat="46.84596" lon="-1.17685">
        <ele>62.6</ele>
        <time>2024-10-19T10:59:32.072Z</time>
      </trkpt>
      <trkpt lat="46.84617" lon="-1.17682">
        <ele>64</ele>
        <time>2024-10-19T10:59:39.802Z</time>
      </trkpt>
      <trkpt lat="46.84648" lon="-1.17675">
        <ele>65.5</ele>
        <time>2024-10-19T10:59:48.819Z</time>
      </trkpt>
      <trkpt lat="46.84664" lon="-1.17666">
        <ele>66.9</ele>
        <time>2024-10-19T10:59:56.554Z</time>
      </trkpt>
      <trkpt lat="46.84675" lon="-1.1766">
        <ele>67.4</ele>
        <time>2024-10-19T10:59:59.716Z</time>
      </trkpt>
      <trkpt lat="46.84701" lon="-1.17638">
        <ele>68</ele>
        <time>2024-10-19T11:00:05.948Z</time>
      </trkpt>
      <trkpt lat="46.84726" lon="-1.17608">
        <ele>69.2</ele>
        <time>2024-10-19T11:00:14.098Z</time>
      </trkpt>
      <trkpt lat="46.84735" lon="-1.17593">
        <ele>69.8</ele>
        <time>2024-10-19T11:00:17.837Z</time>
      </trkpt>
      <trkpt lat="46.84757" lon="-1.17565">
        <ele>71.2</ele>
        <time>2024-10-19T11:00:26.240Z</time>
        <extensions>
          <visugpx:TrkExtension xmlns:visugpx="https://www.visugpx.com/editgpx/">
            <visugpx:node>18</visugpx:node>
            </visugpx:TrkExtension>
        </extensions>
      </trkpt>
      <trkpt lat="46.84772" lon="-1.17546">
        <ele>72.1</ele>
        <time>2024-10-19T11:00:31.771Z</time>
      </trkpt>
      <trkpt lat="46.84803" lon="-1.17502">
        <ele>74</ele>
        <time>2024-10-19T11:00:43.608Z</time>
      </trkpt>
      <trkpt lat="46.84858" lon="-1.17564">
        <ele>74</ele>
        <time>2024-10-19T11:00:55.372Z</time>
      </trkpt>
      <trkpt lat="46.84882" lon="-1.17582">
        <ele>74</ele>
        <time>2024-10-19T11:00:59.941Z</time>
      </trkpt>
      <trkpt lat="46.84899" lon="-1.17589">
        <ele>73.6</ele>
        <time>2024-10-19T11:01:02.390Z</time>
      </trkpt>
      <trkpt lat="46.84938" lon="-1.17599">
        <ele>72.6</ele>
        <time>2024-10-19T11:01:07.767Z</time>
      </trkpt>
      <trkpt lat="46.84951" lon="-1.17601">
        <ele>72.3</ele>
        <time>2024-10-19T11:01:09.575Z</time>
      </trkpt>
      <trkpt lat="46.84967" lon="-1.17604">
        <ele>72</ele>
        <time>2024-10-19T11:01:11.889Z</time>
      </trkpt>
      <trkpt lat="46.8499" lon="-1.17608">
        <ele>72.1</ele>
        <time>2024-10-19T11:01:15.979Z</time>
      </trkpt>
      <trkpt lat="46.85019" lon="-1.17616">
        <ele>73.4</ele>
        <time>2024-10-19T11:01:24.072Z</time>
      </trkpt>
      <trkpt lat="46.85033" lon="-1.17619">
        <ele>74.2</ele>
        <time>2024-10-19T11:01:28.621Z</time>
      </trkpt>
      <trkpt lat="46.85059" lon="-1.17612">
        <ele>75.1</ele>
        <time>2024-10-19T11:01:35.047Z</time>
      </trkpt>
      <trkpt lat="46.85043" lon="-1.17545">
        <ele>75.3</ele>
        <time>2024-10-19T11:01:43.602Z</time>
      </trkpt>
      <trkpt lat="46.85038" lon="-1.17531">
        <ele>75.3</ele>
        <time>2024-10-19T11:01:45.431Z</time>
      </trkpt>
      <trkpt lat="46.85032" lon="-1.17496">
        <ele>74.3</ele>
        <time>2024-10-19T11:01:48.414Z</time>
      </trkpt>
      <trkpt lat="46.8503" lon="-1.17481">
        <ele>74.1</ele>
        <time>2024-10-19T11:01:49.906Z</time>
      </trkpt>
      <trkpt lat="46.85031" lon="-1.17467">
        <ele>74.1</ele>
        <time>2024-10-19T11:01:51.537Z</time>
      </trkpt>
      <trkpt lat="46.85033" lon="-1.17449">
        <ele>74</ele>
        <time>2024-10-19T11:01:53.498Z</time>
      </trkpt>
      <trkpt lat="46.85031" lon="-1.17414">
        <ele>74</ele>
        <time>2024-10-19T11:01:57.567Z</time>
      </trkpt>
      <trkpt lat="46.85027" lon="-1.17387">
        <ele>74.1</ele>
        <time>2024-10-19T11:02:00.935Z</time>
      </trkpt>
      <trkpt lat="46.85024" lon="-1.17375">
        <ele>74.6</ele>
        <time>2024-10-19T11:02:03.770Z</time>
      </trkpt>
      <trkpt lat="46.85012" lon="-1.17339">
        <ele>75</ele>
        <time>2024-10-19T11:02:09.137Z</time>
      </trkpt>
      <trkpt lat="46.84998" lon="-1.17303">
        <ele>75.1</ele>
        <time>2024-10-19T11:02:14.101Z</time>
      </trkpt>
      <trkpt lat="46.84999" lon="-1.17298">
        <ele>75</ele>
        <time>2024-10-19T11:02:14.574Z</time>
      </trkpt>
      <trkpt lat="46.84997" lon="-1.17293">
        <ele>75.1</ele>
        <time>2024-10-19T11:02:15.444Z</time>
      </trkpt>
      <trkpt lat="46.85006" lon="-1.17221">
        <ele>76.3</ele>
        <time>2024-10-19T11:02:26.292Z</time>
      </trkpt>
      <trkpt lat="46.85018" lon="-1.17177">
        <ele>78.3</ele>
        <time>2024-10-19T11:02:37.449Z</time>
      </trkpt>
      <trkpt lat="46.85055" lon="-1.1703">
        <ele>80.9</ele>
        <time>2024-10-19T11:03:00.740Z</time>
      </trkpt>
      <trkpt lat="46.85066" lon="-1.16996">
        <ele>82.1</ele>
        <time>2024-10-19T11:03:08.027Z</time>
      </trkpt>
      <trkpt lat="46.85075" lon="-1.16974">
        <ele>82.3</ele>
        <time>2024-10-19T11:03:11.350Z</time>
      </trkpt>
      <trkpt lat="46.8508" lon="-1.16963">
        <ele>82.4</ele>
        <time>2024-10-19T11:03:13.057Z</time>
      </trkpt>
      <trkpt lat="46.85084" lon="-1.16953">
        <ele>82.7</ele>
        <time>2024-10-19T11:03:15.072Z</time>
      </trkpt>
      <trkpt lat="46.85123" lon="-1.16865">
        <ele>84.9</ele>
        <time>2024-10-19T11:03:31.834Z</time>
      </trkpt>
      <trkpt lat="46.85164" lon="-1.16766">
        <ele>87.4</ele>
        <time>2024-10-19T11:03:50.530Z</time>
      </trkpt>
      <trkpt lat="46.85172" lon="-1.16726">
        <ele>88.2</ele>
        <time>2024-10-19T11:03:56.996Z</time>
      </trkpt>
      <trkpt lat="46.85183" lon="-1.16705">
        <ele>88.8</ele>
        <time>2024-10-19T11:04:01.348Z</time>
      </trkpt>
      <trkpt lat="46.85188" lon="-1.16703">
        <ele>88.9</ele>
        <time>2024-10-19T11:04:02.415Z</time>
      </trkpt>
      <trkpt lat="46.85195" lon="-1.16695">
        <ele>89</ele>
        <time>2024-10-19T11:04:04.097Z</time>
      </trkpt>
      <trkpt lat="46.85197" lon="-1.16682">
        <ele>89</ele>
        <time>2024-10-19T11:04:05.641Z</time>
      </trkpt>
      <trkpt lat="46.85196" lon="-1.16676">
        <ele>89</ele>
        <time>2024-10-19T11:04:06.356Z</time>
      </trkpt>
      <trkpt lat="46.8519" lon="-1.16667">
        <ele>89</ele>
        <time>2024-10-19T11:04:07.812Z</time>
      </trkpt>
      <trkpt lat="46.8519" lon="-1.16648">
        <ele>89.6</ele>
        <time>2024-10-19T11:04:11.471Z</time>
      </trkpt>
      <trkpt lat="46.85196" lon="-1.16629">
        <ele>89.7</ele>
        <time>2024-10-19T11:04:14.066Z</time>
      </trkpt>
      <trkpt lat="46.85219" lon="-1.16528">
        <ele>92.8</ele>
        <time>2024-10-19T11:04:33.671Z</time>
      </trkpt>
      <trkpt lat="46.85222" lon="-1.16514">
        <ele>93</ele>
        <time>2024-10-19T11:04:35.752Z</time>
      </trkpt>
      <trkpt lat="46.8524" lon="-1.16438">
        <ele>93</ele>
        <time>2024-10-19T11:04:45.069Z</time>
      </trkpt>
      <trkpt lat="46.85259" lon="-1.16352">
        <ele>93.3</ele>
        <time>2024-10-19T11:04:56.041Z</time>
      </trkpt>
      <trkpt lat="46.85369" lon="-1.1587">
        <ele>97</ele>
        <time>2024-10-19T11:06:01.409Z</time>
      </trkpt>
      <trkpt lat="46.85381" lon="-1.15817">
        <ele>97</ele>
        <time>2024-10-19T11:06:07.877Z</time>
      </trkpt>
      <trkpt lat="46.85442" lon="-1.15539">
        <ele>94</ele>
        <time>2024-10-19T11:06:37.396Z</time>
      </trkpt>
      <trkpt lat="46.855" lon="-1.1528">
        <ele>94.9</ele>
        <time>2024-10-19T11:07:10.474Z</time>
      </trkpt>
      <trkpt lat="46.85567" lon="-1.14978">
        <ele>96</ele>
        <time>2024-10-19T11:07:49.098Z</time>
      </trkpt>
      <trkpt lat="46.85624" lon="-1.14713">
        <ele>97.5</ele>
        <time>2024-10-19T11:08:23.854Z</time>
      </trkpt>
      <trkpt lat="46.8567" lon="-1.14336">
        <ele>104.7</ele>
        <time>2024-10-19T11:09:22.882Z</time>
      </trkpt>
      <trkpt lat="46.85677" lon="-1.14279">
        <ele>103.8</ele>
        <time>2024-10-19T11:09:28.371Z</time>
      </trkpt>
      <trkpt lat="46.85683" lon="-1.14232">
        <ele>105.9</ele>
        <time>2024-10-19T11:09:40.013Z</time>
      </trkpt>
      <trkpt lat="46.85692" lon="-1.14182">
        <ele>107.6</ele>
        <time>2024-10-19T11:09:50.209Z</time>
      </trkpt>
      <trkpt lat="46.85705" lon="-1.1414">
        <ele>106.3</ele>
        <time>2024-10-19T11:09:54.000Z</time>
      </trkpt>
      <trkpt lat="46.85722" lon="-1.14101">
        <ele>107</ele>
        <time>2024-10-19T11:10:00.716Z</time>
      </trkpt>
      <trkpt lat="46.8574" lon="-1.1407">
        <ele>105.6</ele>
        <time>2024-10-19T11:10:03.854Z</time>
        <extensions>
          <visugpx:TrkExtension xmlns:visugpx="https://www.visugpx.com/editgpx/">
            <visugpx:node>19</visugpx:node>
            </visugpx:TrkExtension>
        </extensions>
      </trkpt>
      <trkpt lat="46.85746" lon="-1.14061">
        <ele>106.7</ele>
        <time>2024-10-19T11:10:10.032Z</time>
      </trkpt>
      <trkpt lat="46.85764" lon="-1.14038">
        <ele>105</ele>
        <time>2024-10-19T11:10:12.461Z</time>
      </trkpt>
      <trkpt lat="46.85783" lon="-1.14018">
        <ele>105.3</ele>
        <time>2024-10-19T11:10:16.964Z</time>
      </trkpt>
      <trkpt lat="46.85809" lon="-1.13999">
        <ele>105.7</ele>
        <time>2024-10-19T11:10:22.610Z</time>
      </trkpt>
      <trkpt lat="46.85875" lon="-1.13959">
        <ele>105</ele>
        <time>2024-10-19T11:10:33.667Z</time>
      </trkpt>
      <trkpt lat="46.85896" lon="-1.13945">
        <ele>105.7</ele>
        <time>2024-10-19T11:10:39.040Z</time>
      </trkpt>
      <trkpt lat="46.85924" lon="-1.13921">
        <ele>105</ele>
        <time>2024-10-19T11:10:43.581Z</time>
      </trkpt>
      <trkpt lat="46.8595" lon="-1.13893">
        <ele>105</ele>
        <time>2024-10-19T11:10:49.051Z</time>
      </trkpt>
      <trkpt lat="46.8598" lon="-1.13852">
        <ele>104.5</ele>
        <time>2024-10-19T11:10:55.274Z</time>
      </trkpt>
      <trkpt lat="46.85996" lon="-1.13825">
        <ele>104</ele>
        <time>2024-10-19T11:10:58.724Z</time>
      </trkpt>
      <trkpt lat="46.86068" lon="-1.13681">
        <ele>104.8</ele>
        <time>2024-10-19T11:11:20.745Z</time>
      </trkpt>
      <trkpt lat="46.86219" lon="-1.13378">
        <ele>105</ele>
        <time>2024-10-19T11:12:04.497Z</time>
      </trkpt>
      <trkpt lat="46.86295" lon="-1.13227">
        <ele>104.5</ele>
        <time>2024-10-19T11:12:25.433Z</time>
      </trkpt>
      <trkpt lat="46.86321" lon="-1.13175">
        <ele>104</ele>
        <time>2024-10-19T11:12:32.157Z</time>
      </trkpt>
      <trkpt lat="46.86344" lon="-1.13111">
        <ele>103</ele>
        <time>2024-10-19T11:12:39.151Z</time>
      </trkpt>
      <trkpt lat="46.8641" lon="-1.12879">
        <ele>100.2</ele>
        <time>2024-10-19T11:13:04.277Z</time>
      </trkpt>
      <trkpt lat="46.86421" lon="-1.12828">
        <ele>100</ele>
        <time>2024-10-19T11:13:10.162Z</time>
      </trkpt>
      <trkpt lat="46.8643" lon="-1.12782">
        <ele>100</ele>
        <time>2024-10-19T11:13:15.704Z</time>
      </trkpt>
      <trkpt lat="46.86482" lon="-1.12461">
        <ele>98.2</ele>
        <time>2024-10-19T11:13:51.188Z</time>
      </trkpt>
      <trkpt lat="46.86506" lon="-1.12318">
        <ele>96.1</ele>
        <time>2024-10-19T11:14:05.357Z</time>
      </trkpt>
      <trkpt lat="46.86515" lon="-1.12276">
        <ele>95.5</ele>
        <time>2024-10-19T11:14:09.625Z</time>
      </trkpt>
      <trkpt lat="46.86528" lon="-1.12226">
        <ele>95</ele>
        <time>2024-10-19T11:14:15.096Z</time>
      </trkpt>
      <trkpt lat="46.86622" lon="-1.1191">
        <ele>89.8</ele>
        <time>2024-10-19T11:14:47.928Z</time>
      </trkpt>
      <trkpt lat="46.86626" lon="-1.11891">
        <ele>89.1</ele>
        <time>2024-10-19T11:14:49.449Z</time>
      </trkpt>
      <trkpt lat="46.86628" lon="-1.11873">
        <ele>88.1</ele>
        <time>2024-10-19T11:14:50.717Z</time>
      </trkpt>
      <trkpt lat="46.86627" lon="-1.11849">
        <ele>87</ele>
        <time>2024-10-19T11:14:52.387Z</time>
      </trkpt>
      <trkpt lat="46.86621" lon="-1.11813">
        <ele>85.9</ele>
        <time>2024-10-19T11:14:55.386Z</time>
      </trkpt>
      <trkpt lat="46.86555" lon="-1.11578">
        <ele>87</ele>
        <time>2024-10-19T11:15:26.675Z</time>
      </trkpt>
      <trkpt lat="46.86461" lon="-1.11238">
        <ele>95.4</ele>
        <time>2024-10-19T11:16:27.235Z</time>
      </trkpt>
      <trkpt lat="46.8645" lon="-1.11189">
        <ele>96.2</ele>
        <time>2024-10-19T11:16:34.769Z</time>
      </trkpt>
      <trkpt lat="46.8643" lon="-1.11075">
        <ele>97</ele>
        <time>2024-10-19T11:16:49.798Z</time>
      </trkpt>
      <trkpt lat="46.86406" lon="-1.1093">
        <ele>97</ele>
        <time>2024-10-19T11:17:07.077Z</time>
      </trkpt>
      <trkpt lat="46.86405" lon="-1.10927">
        <ele>97</ele>
        <time>2024-10-19T11:17:07.464Z</time>
      </trkpt>
      <trkpt lat="46.86394" lon="-1.10858">
        <ele>96.7</ele>
        <time>2024-10-19T11:17:15.209Z</time>
      </trkpt>
      <trkpt lat="46.86383" lon="-1.10785">
        <ele>95.6</ele>
        <time>2024-10-19T11:17:22.363Z</time>
      </trkpt>
      <trkpt lat="46.86371" lon="-1.10714">
        <ele>95.5</ele>
        <time>2024-10-19T11:17:30.676Z</time>
      </trkpt>
      <trkpt lat="46.86362" lon="-1.10672">
        <ele>95.2</ele>
        <time>2024-10-19T11:17:35.326Z</time>
      </trkpt>
      <trkpt lat="46.86348" lon="-1.10629">
        <ele>94.8</ele>
        <time>2024-10-19T11:17:40.257Z</time>
      </trkpt>
      <trkpt lat="46.86317" lon="-1.10543">
        <ele>95.1</ele>
        <time>2024-10-19T11:17:52.018Z</time>
        <extensions>
          <visugpx:TrkExtension xmlns:visugpx="https://www.visugpx.com/editgpx/">
            <visugpx:node>20</visugpx:node>
            </visugpx:TrkExtension>
        </extensions>
      </trkpt>
      <trkpt lat="46.86295" lon="-1.1048">
        <ele>94.6</ele>
        <time>2024-10-19T11:17:59.469Z</time>
      </trkpt>
      <trkpt lat="46.86233" lon="-1.10311">
        <ele>91.2</ele>
        <time>2024-10-19T11:18:17.179Z</time>
      </trkpt>
      <trkpt lat="46.86209" lon="-1.10244">
        <ele>90.1</ele>
        <time>2024-10-19T11:18:24.433Z</time>
      </trkpt>
      <trkpt lat="46.86175" lon="-1.1015">
        <ele>88.1</ele>
        <time>2024-10-19T11:18:34.131Z</time>
      </trkpt>
      <trkpt lat="46.8615" lon="-1.10085">
        <ele>86.6</ele>
        <time>2024-10-19T11:18:40.830Z</time>
      </trkpt>
      <trkpt lat="46.86143" lon="-1.1007">
        <ele>86.4</ele>
        <time>2024-10-19T11:18:42.649Z</time>
      </trkpt>
      <trkpt lat="46.86129" lon="-1.10052">
        <ele>86.4</ele>
        <time>2024-10-19T11:18:45.807Z</time>
      </trkpt>
      <trkpt lat="46.86125" lon="-1.10048">
        <ele>86.5</ele>
        <time>2024-10-19T11:18:46.819Z</time>
      </trkpt>
      <trkpt lat="46.8612" lon="-1.10041">
        <ele>86.7</ele>
        <time>2024-10-19T11:18:48.404Z</time>
      </trkpt>
      <trkpt lat="46.86079" lon="-1.09996">
        <ele>87.4</ele>
        <time>2024-10-19T11:18:58.350Z</time>
      </trkpt>
      <trkpt lat="46.8605" lon="-1.09936">
        <ele>88.2</ele>
        <time>2024-10-19T11:19:08.332Z</time>
      </trkpt>
      <trkpt lat="46.86043" lon="-1.09943">
        <ele>88.5</ele>
        <time>2024-10-19T11:19:10.426Z</time>
      </trkpt>
      <trkpt lat="46.86028" lon="-1.09953">
        <ele>89.3</ele>
        <time>2024-10-19T11:19:15.207Z</time>
      </trkpt>
      <trkpt lat="46.85984" lon="-1.09979">
        <ele>90.2</ele>
        <time>2024-10-19T11:19:24.945Z</time>
      </trkpt>
      <trkpt lat="46.85955" lon="-1.0999">
        <ele>90.9</ele>
        <time>2024-10-19T11:19:31.394Z</time>
      </trkpt>
      <trkpt lat="46.85946" lon="-1.09992">
        <ele>91</ele>
        <time>2024-10-19T11:19:33.112Z</time>
      </trkpt>
      <trkpt lat="46.85939" lon="-1.09994">
        <ele>91.2</ele>
        <time>2024-10-19T11:19:34.730Z</time>
      </trkpt>
      <trkpt lat="46.85907" lon="-1.10004">
        <ele>92.4</ele>
        <time>2024-10-19T11:19:42.934Z</time>
      </trkpt>
      <trkpt lat="46.85895" lon="-1.1001">
        <ele>92.9</ele>
        <time>2024-10-19T11:19:46.221Z</time>
      </trkpt>
      <trkpt lat="46.85888" lon="-1.10017">
        <ele>93</ele>
        <time>2024-10-19T11:19:47.835Z</time>
      </trkpt>
      <trkpt lat="46.8588" lon="-1.10001">
        <ele>93.6</ele>
        <time>2024-10-19T11:19:51.561Z</time>
      </trkpt>
      <trkpt lat="46.85874" lon="-1.09984">
        <ele>93.8</ele>
        <time>2024-10-19T11:19:54.143Z</time>
      </trkpt>
      <trkpt lat="46.85871" lon="-1.09973">
        <ele>93.7</ele>
        <time>2024-10-19T11:19:55.369Z</time>
      </trkpt>
      <trkpt lat="46.85864" lon="-1.09953">
        <ele>93.9</ele>
        <time>2024-10-19T11:19:58.330Z</time>
      </trkpt>
      <trkpt lat="46.85848" lon="-1.09914">
        <ele>93.9</ele>
        <time>2024-10-19T11:20:03.598Z</time>
      </trkpt>
      <trkpt lat="46.85836" lon="-1.09897">
        <ele>93.5</ele>
        <time>2024-10-19T11:20:05.891Z</time>
      </trkpt>
      <trkpt lat="46.85768" lon="-1.09792">
        <ele>97.5</ele>
        <time>2024-10-19T11:20:31.837Z</time>
      </trkpt>
      <trkpt lat="46.85756" lon="-1.09777">
        <ele>97.8</ele>
        <time>2024-10-19T11:20:35.078Z</time>
      </trkpt>
      <trkpt lat="46.85695" lon="-1.09707">
        <ele>97</ele>
        <time>2024-10-19T11:20:47.024Z</time>
      </trkpt>
      <trkpt lat="46.85688" lon="-1.09696">
        <ele>96.8</ele>
        <time>2024-10-19T11:20:48.487Z</time>
      </trkpt>
      <trkpt lat="46.85687" lon="-1.09694">
        <ele>96.7</ele>
        <time>2024-10-19T11:20:48.668Z</time>
      </trkpt>
      <trkpt lat="46.85653" lon="-1.09651">
        <ele>94.2</ele>
        <time>2024-10-19T11:20:53.565Z</time>
      </trkpt>
      <trkpt lat="46.85647" lon="-1.09642">
        <ele>94</ele>
        <time>2024-10-19T11:20:54.751Z</time>
      </trkpt>
      <trkpt lat="46.8561" lon="-1.09591">
        <ele>93.3</ele>
        <time>2024-10-19T11:21:02.350Z</time>
      </trkpt>
      <trkpt lat="46.85554" lon="-1.09521">
        <ele>94.8</ele>
        <time>2024-10-19T11:21:17.697Z</time>
      </trkpt>
      <trkpt lat="46.8555" lon="-1.09515">
        <ele>94.7</ele>
        <time>2024-10-19T11:21:18.527Z</time>
        <extensions>
          <visugpx:TrkExtension xmlns:visugpx="https://www.visugpx.com/editgpx/">
            <visugpx:node>21</visugpx:node>
            </visugpx:TrkExtension>
        </extensions>
      </trkpt>
      <trkpt lat="46.85541" lon="-1.095">
        <ele>94.5</ele>
        <time>2024-10-19T11:21:20.551Z</time>
      </trkpt>
      <trkpt lat="46.85534" lon="-1.0948">
        <ele>94.2</ele>
        <time>2024-10-19T11:21:22.737Z</time>
      </trkpt>
      <trkpt lat="46.85514" lon="-1.09419">
        <ele>92.6</ele>
        <time>2024-10-19T11:21:28.578Z</time>
      </trkpt>
      <trkpt lat="46.85506" lon="-1.09405">
        <ele>92.4</ele>
        <time>2024-10-19T11:21:30.407Z</time>
      </trkpt>
      <trkpt lat="46.85501" lon="-1.09399">
        <ele>92.3</ele>
        <time>2024-10-19T11:21:31.360Z</time>
      </trkpt>
      <trkpt lat="46.85485" lon="-1.09391">
        <ele>92.5</ele>
        <time>2024-10-19T11:21:34.579Z</time>
      </trkpt>
      <trkpt lat="46.85323" lon="-1.09354">
        <ele>99.8</ele>
        <time>2024-10-19T11:22:19.806Z</time>
      </trkpt>
      <trkpt lat="46.85301" lon="-1.09346">
        <ele>100.1</ele>
        <time>2024-10-19T11:22:24.185Z</time>
      </trkpt>
      <trkpt lat="46.85294" lon="-1.09335">
        <ele>100</ele>
        <time>2024-10-19T11:22:25.777Z</time>
      </trkpt>
      <trkpt lat="46.85265" lon="-1.09306">
        <ele>98.6</ele>
        <time>2024-10-19T11:22:30.043Z</time>
      </trkpt>
      <trkpt lat="46.85222" lon="-1.09298">
        <ele>97.7</ele>
        <time>2024-10-19T11:22:36.149Z</time>
      </trkpt>
      <trkpt lat="46.85186" lon="-1.09277">
        <ele>96.7</ele>
        <time>2024-10-19T11:22:41.389Z</time>
      </trkpt>
      <trkpt lat="46.85175" lon="-1.09268">
        <ele>95.9</ele>
        <time>2024-10-19T11:22:42.695Z</time>
      </trkpt>
      <trkpt lat="46.85164" lon="-1.0926">
        <ele>95.5</ele>
        <time>2024-10-19T11:22:44.271Z</time>
      </trkpt>
      <trkpt lat="46.85149" lon="-1.09245">
        <ele>95.5</ele>
        <time>2024-10-19T11:22:47.349Z</time>
      </trkpt>
      <trkpt lat="46.85141" lon="-1.09234">
        <ele>95.4</ele>
        <time>2024-10-19T11:22:49.059Z</time>
      </trkpt>
      <trkpt lat="46.8512" lon="-1.09199">
        <ele>94.6</ele>
        <time>2024-10-19T11:22:53.387Z</time>
      </trkpt>
      <trkpt lat="46.85102" lon="-1.09166">
        <ele>94.3</ele>
        <time>2024-10-19T11:22:57.832Z</time>
      </trkpt>
      <trkpt lat="46.85083" lon="-1.09134">
        <ele>93.7</ele>
        <time>2024-10-19T11:23:01.916Z</time>
      </trkpt>
      <trkpt lat="46.85034" lon="-1.09077">
        <ele>93.3</ele>
        <time>2024-10-19T11:23:11.910Z</time>
      </trkpt>
      <trkpt lat="46.84992" lon="-1.09019">
        <ele>93</ele>
        <time>2024-10-19T11:23:21.232Z</time>
      </trkpt>
      <trkpt lat="46.84979" lon="-1.09004">
        <ele>92.9</ele>
        <time>2024-10-19T11:23:23.884Z</time>
      </trkpt>
      <trkpt lat="46.84945" lon="-1.08975">
        <ele>91.2</ele>
        <time>2024-10-19T11:23:28.551Z</time>
      </trkpt>
      <trkpt lat="46.84838" lon="-1.08841">
        <ele>83</ele>
        <time>2024-10-19T11:23:43.645Z</time>
      </trkpt>
      <trkpt lat="46.84834" lon="-1.08826">
        <ele>83</ele>
        <time>2024-10-19T11:23:45.510Z</time>
      </trkpt>
      <trkpt lat="46.84832" lon="-1.08807">
        <ele>83</ele>
        <time>2024-10-19T11:23:47.737Z</time>
      </trkpt>
      <trkpt lat="46.84836" lon="-1.08768">
        <ele>83.3</ele>
        <time>2024-10-19T11:23:52.836Z</time>
      </trkpt>
      <trkpt lat="46.84842" lon="-1.08738">
        <ele>84.6</ele>
        <time>2024-10-19T11:24:00.108Z</time>
      </trkpt>
      <trkpt lat="46.84848" lon="-1.08722">
        <ele>85.5</ele>
        <time>2024-10-19T11:24:05.052Z</time>
      </trkpt>
      <trkpt lat="46.84861" lon="-1.08704">
        <ele>87.3</ele>
        <time>2024-10-19T11:24:15.358Z</time>
      </trkpt>
      <trkpt lat="46.8487" lon="-1.08697">
        <ele>87.8</ele>
        <time>2024-10-19T11:24:18.334Z</time>
      </trkpt>
      <trkpt lat="46.84881" lon="-1.08693">
        <ele>88.1</ele>
        <time>2024-10-19T11:24:20.859Z</time>
      </trkpt>
      <trkpt lat="46.8492" lon="-1.08687">
        <ele>89.3</ele>
        <time>2024-10-19T11:24:30.017Z</time>
      </trkpt>
      <trkpt lat="46.8493" lon="-1.08683">
        <ele>89.4</ele>
        <time>2024-10-19T11:24:31.948Z</time>
      </trkpt>
      <trkpt lat="46.84935" lon="-1.08678">
        <ele>89.6</ele>
        <time>2024-10-19T11:24:33.403Z</time>
      </trkpt>
      <trkpt lat="46.8494" lon="-1.08668">
        <ele>90</ele>
        <time>2024-10-19T11:24:35.819Z</time>
      </trkpt>
      <trkpt lat="46.84941" lon="-1.08655">
        <ele>90.5</ele>
        <time>2024-10-19T11:24:38.672Z</time>
      </trkpt>
      <trkpt lat="46.8494" lon="-1.08638">
        <ele>91.2</ele>
        <time>2024-10-19T11:24:42.598Z</time>
      </trkpt>
      <trkpt lat="46.84926" lon="-1.08513">
        <ele>95</ele>
        <time>2024-10-19T11:25:06.300Z</time>
      </trkpt>
      <trkpt lat="46.84921" lon="-1.08493">
        <ele>95.2</ele>
        <time>2024-10-19T11:25:09.128Z</time>
      </trkpt>
      <trkpt lat="46.84915" lon="-1.08479">
        <ele>95.8</ele>
        <time>2024-10-19T11:25:12.602Z</time>
      </trkpt>
      <trkpt lat="46.84907" lon="-1.08466">
        <ele>96</ele>
        <time>2024-10-19T11:25:14.998Z</time>
      </trkpt>
      <trkpt lat="46.84895" lon="-1.08449">
        <ele>96</ele>
        <time>2024-10-19T11:25:17.829Z</time>
      </trkpt>
      <trkpt lat="46.84818" lon="-1.08356">
        <ele>97</ele>
        <time>2024-10-19T11:25:36.495Z</time>
      </trkpt>
      <trkpt lat="46.847" lon="-1.08218">
        <ele>98.8</ele>
        <time>2024-10-19T11:26:05.289Z</time>
      </trkpt>
      <trkpt lat="46.84675" lon="-1.08183">
        <ele>99.3</ele>
        <time>2024-10-19T11:26:12.060Z</time>
      </trkpt>
      <trkpt lat="46.84646" lon="-1.0814">
        <ele>100</ele>
        <time>2024-10-19T11:26:20.356Z</time>
      </trkpt>
      <trkpt lat="46.84499" lon="-1.07845">
        <ele>101</ele>
        <time>2024-10-19T11:27:04.307Z</time>
      </trkpt>
      <trkpt lat="46.84487" lon="-1.07819">
        <ele>100.7</ele>
        <time>2024-10-19T11:27:07.507Z</time>
      </trkpt>
      <trkpt lat="46.84461" lon="-1.0775">
        <ele>101</ele>
        <time>2024-10-19T11:27:17.140Z</time>
      </trkpt>
      <trkpt lat="46.84449" lon="-1.07725">
        <ele>101</ele>
        <time>2024-10-19T11:27:20.679Z</time>
      </trkpt>
      <trkpt lat="46.84392" lon="-1.0762">
        <ele>100.8</ele>
        <time>2024-10-19T11:27:35.894Z</time>
      </trkpt>
      <trkpt lat="46.84397" lon="-1.07609">
        <ele>101.3</ele>
        <time>2024-10-19T11:27:38.754Z</time>
      </trkpt>
      <trkpt lat="46.84375" lon="-1.07585">
        <ele>102.4</ele>
        <time>2024-10-19T11:27:45.923Z</time>
      </trkpt>
      <trkpt lat="46.84366" lon="-1.07573">
        <ele>102.9</ele>
        <time>2024-10-19T11:27:49.142Z</time>
        <extensions>
          <visugpx:TrkExtension xmlns:visugpx="https://www.visugpx.com/editgpx/">
            <visugpx:node>22</visugpx:node>
            </visugpx:TrkExtension>
        </extensions>
      </trkpt>
      <trkpt lat="46.84342" lon="-1.07538">
        <ele>103</ele>
        <time>2024-10-19T11:27:55.050Z</time>
      </trkpt>
      <trkpt lat="46.84287" lon="-1.07454">
        <ele>104.7</ele>
        <time>2024-10-19T11:28:11.801Z</time>
      </trkpt>
      <trkpt lat="46.84196" lon="-1.07338">
        <ele>106.9</ele>
        <time>2024-10-19T11:28:36.379Z</time>
      </trkpt>
      <trkpt lat="46.84099" lon="-1.07194">
        <ele>107</ele>
        <time>2024-10-19T11:28:59.959Z</time>
      </trkpt>
      <trkpt lat="46.84065" lon="-1.0714">
        <ele>107</ele>
        <time>2024-10-19T11:29:08.463Z</time>
      </trkpt>
      <trkpt lat="46.84036" lon="-1.07102">
        <ele>107</ele>
        <time>2024-10-19T11:29:15.060Z</time>
      </trkpt>
      <trkpt lat="46.84014" lon="-1.07063">
        <ele>107</ele>
        <time>2024-10-19T11:29:20.917Z</time>
      </trkpt>
      <trkpt lat="46.83961" lon="-1.06953">
        <ele>107</ele>
        <time>2024-10-19T11:29:36.508Z</time>
      </trkpt>
      <trkpt lat="46.83952" lon="-1.0693">
        <ele>107</ele>
        <time>2024-10-19T11:29:39.578Z</time>
      </trkpt>
      <trkpt lat="46.83928" lon="-1.0687">
        <ele>107</ele>
        <time>2024-10-19T11:29:47.632Z</time>
      </trkpt>
      <trkpt lat="46.83886" lon="-1.06761">
        <ele>106</ele>
        <time>2024-10-19T11:30:00.657Z</time>
      </trkpt>
      <trkpt lat="46.83866" lon="-1.06696">
        <ele>106</ele>
        <time>2024-10-19T11:30:08.916Z</time>
      </trkpt>
      <trkpt lat="46.83817" lon="-1.06516">
        <ele>106</ele>
        <time>2024-10-19T11:30:31.365Z</time>
      </trkpt>
      <trkpt lat="46.83787" lon="-1.06446">
        <ele>106</ele>
        <time>2024-10-19T11:30:40.936Z</time>
      </trkpt>
      <trkpt lat="46.83772" lon="-1.06415">
        <ele>106</ele>
        <time>2024-10-19T11:30:45.336Z</time>
      </trkpt>
      <trkpt lat="46.83763" lon="-1.06403">
        <ele>106</ele>
        <time>2024-10-19T11:30:47.400Z</time>
      </trkpt>
      <trkpt lat="46.83739" lon="-1.06363">
        <ele>106</ele>
        <time>2024-10-19T11:30:53.565Z</time>
      </trkpt>
      <trkpt lat="46.83723" lon="-1.06334">
        <ele>106</ele>
        <time>2024-10-19T11:30:57.882Z</time>
      </trkpt>
      <trkpt lat="46.83709" lon="-1.06315">
        <ele>106</ele>
        <time>2024-10-19T11:31:01.118Z</time>
      </trkpt>
      <trkpt lat="46.83612" lon="-1.0621">
        <ele>106</ele>
        <time>2024-10-19T11:31:21.564Z</time>
      </trkpt>
      <trkpt lat="46.83569" lon="-1.06167">
        <ele>106.5</ele>
        <time>2024-10-19T11:31:31.261Z</time>
        <extensions>
          <visugpx:TrkExtension xmlns:visugpx="https://www.visugpx.com/editgpx/">
            <visugpx:node>23</visugpx:node>
            </visugpx:TrkExtension>
        </extensions>
      </trkpt>
      <trkpt lat="46.83546" lon="-1.06144">
        <ele>106.2</ele>
        <time>2024-10-19T11:31:35.537Z</time>
      </trkpt>
      <trkpt lat="46.83465" lon="-1.06059">
        <ele>106</ele>
        <time>2024-10-19T11:31:52.110Z</time>
      </trkpt>
      <trkpt lat="46.83452" lon="-1.0604">
        <ele>106</ele>
        <time>2024-10-19T11:31:55.224Z</time>
      </trkpt>
      <trkpt lat="46.83443" lon="-1.06024">
        <ele>106.1</ele>
        <time>2024-10-19T11:31:57.795Z</time>
      </trkpt>
      <trkpt lat="46.83435" lon="-1.06003">
        <ele>106.6</ele>
        <time>2024-10-19T11:32:01.627Z</time>
      </trkpt>
      <trkpt lat="46.83428" lon="-1.05971">
        <ele>106.4</ele>
        <time>2024-10-19T11:32:05.219Z</time>
      </trkpt>
      <trkpt lat="46.83415" lon="-1.05906">
        <ele>106.9</ele>
        <time>2024-10-19T11:32:13.947Z</time>
      </trkpt>
      <trkpt lat="46.83403" lon="-1.05869">
        <ele>106.5</ele>
        <time>2024-10-19T11:32:18.115Z</time>
      </trkpt>
      <trkpt lat="46.83377" lon="-1.05799">
        <ele>106.6</ele>
        <time>2024-10-19T11:32:27.509Z</time>
      </trkpt>
      <trkpt lat="46.83365" lon="-1.05761">
        <ele>106.1</ele>
        <time>2024-10-19T11:32:31.655Z</time>
      </trkpt>
      <trkpt lat="46.83345" lon="-1.05666">
        <ele>106.4</ele>
        <time>2024-10-19T11:32:43.675Z</time>
      </trkpt>
      <trkpt lat="46.83338" lon="-1.05627">
        <ele>106.2</ele>
        <time>2024-10-19T11:32:48.043Z</time>
      </trkpt>
      <trkpt lat="46.83335" lon="-1.05592">
        <ele>106.1</ele>
        <time>2024-10-19T11:32:51.975Z</time>
      </trkpt>
      <trkpt lat="46.83342" lon="-1.0545">
        <ele>106.4</ele>
        <time>2024-10-19T11:33:08.969Z</time>
      </trkpt>
      <trkpt lat="46.83343" lon="-1.0542">
        <ele>106.9</ele>
        <time>2024-10-19T11:33:13.439Z</time>
      </trkpt>
      <trkpt lat="46.83339" lon="-1.05376">
        <ele>106.6</ele>
        <time>2024-10-19T11:33:18.136Z</time>
      </trkpt>
      <trkpt lat="46.83331" lon="-1.05323">
        <ele>106.9</ele>
        <time>2024-10-19T11:33:24.942Z</time>
      </trkpt>
      <trkpt lat="46.83315" lon="-1.05247">
        <ele>107</ele>
        <time>2024-10-19T11:33:34.320Z</time>
      </trkpt>
      <trkpt lat="46.83436" lon="-1.05195">
        <ele>106.3</ele>
        <time>2024-10-19T11:33:54.605Z</time>
      </trkpt>
      <trkpt lat="46.83643" lon="-1.0515">
        <ele>99.9</ele>
        <time>2024-10-19T11:34:21.851Z</time>
      </trkpt>
      <trkpt lat="46.8367" lon="-1.05144">
        <ele>99.1</ele>
        <time>2024-10-19T11:34:25.443Z</time>
      </trkpt>
      <trkpt lat="46.83718" lon="-1.05133">
        <ele>97.2</ele>
        <time>2024-10-19T11:34:31.375Z</time>
      </trkpt>
      <trkpt lat="46.8374" lon="-1.05123">
        <ele>96.6</ele>
        <time>2024-10-19T11:34:34.484Z</time>
      </trkpt>
      <trkpt lat="46.83769" lon="-1.05105">
        <ele>96.1</ele>
        <time>2024-10-19T11:34:39.108Z</time>
      </trkpt>
      <trkpt lat="46.83792" lon="-1.05086">
        <ele>95</ele>
        <time>2024-10-19T11:34:42.275Z</time>
      </trkpt>
      <trkpt lat="46.83815" lon="-1.05076">
        <ele>94.2</ele>
        <time>2024-10-19T11:34:45.334Z</time>
      </trkpt>
      <trkpt lat="46.83913" lon="-1.05048">
        <ele>92</ele>
        <time>2024-10-19T11:34:59.252Z</time>
      </trkpt>
      <trkpt lat="46.83979" lon="-1.05033">
        <ele>93.3</ele>
        <time>2024-10-19T11:35:13.032Z</time>
      </trkpt>
      <trkpt lat="46.84058" lon="-1.04989">
        <ele>98.1</ele>
        <time>2024-10-19T11:35:40.300Z</time>
      </trkpt>
      <trkpt lat="46.8416" lon="-1.04925">
        <ele>102.8</ele>
        <time>2024-10-19T11:36:10.105Z</time>
        <extensions>
          <visugpx:TrkExtension xmlns:visugpx="https://www.visugpx.com/editgpx/">
            <visugpx:node>24</visugpx:node>
            </visugpx:TrkExtension>
        </extensions>
      </trkpt>
      <trkpt lat="46.8428" lon="-1.04848">
        <ele>106</ele>
        <time>2024-10-19T11:36:38.644Z</time>
      </trkpt>
      <trkpt lat="46.84306" lon="-1.0482">
        <ele>106</ele>
        <time>2024-10-19T11:36:44.114Z</time>
      </trkpt>
      <trkpt lat="46.84332" lon="-1.04786">
        <ele>107</ele>
        <time>2024-10-19T11:36:52.082Z</time>
      </trkpt>
      <trkpt lat="46.84356" lon="-1.04748">
        <ele>107.8</ele>
        <time>2024-10-19T11:36:59.635Z</time>
      </trkpt>
      <trkpt lat="46.84358" lon="-1.04741">
        <ele>107.9</ele>
        <time>2024-10-19T11:37:00.703Z</time>
      </trkpt>
      <trkpt lat="46.84364" lon="-1.04721">
        <ele>108</ele>
        <time>2024-10-19T11:37:03.404Z</time>
      </trkpt>
      <trkpt lat="46.84366" lon="-1.04694">
        <ele>108</ele>
        <time>2024-10-19T11:37:06.550Z</time>
      </trkpt>
      <trkpt lat="46.84366" lon="-1.04655">
        <ele>108</ele>
        <time>2024-10-19T11:37:11.069Z</time>
      </trkpt>
      <trkpt lat="46.84361" lon="-1.04628">
        <ele>108</ele>
        <time>2024-10-19T11:37:14.310Z</time>
      </trkpt>
      <trkpt lat="46.84317" lon="-1.04461">
        <ele>108</ele>
        <time>2024-10-19T11:37:35.045Z</time>
      </trkpt>
      <trkpt lat="46.84301" lon="-1.04374">
        <ele>108</ele>
        <time>2024-10-19T11:37:45.483Z</time>
      </trkpt>
      <trkpt lat="46.8429" lon="-1.04287">
        <ele>108.7</ele>
        <time>2024-10-19T11:37:56.975Z</time>
      </trkpt>
      <trkpt lat="46.84287" lon="-1.04214">
        <ele>109.1</ele>
        <time>2024-10-19T11:38:06.136Z</time>
      </trkpt>
      <trkpt lat="46.84289" lon="-1.04134">
        <ele>109.3</ele>
        <time>2024-10-19T11:38:15.743Z</time>
      </trkpt>
      <trkpt lat="46.84334" lon="-1.03763">
        <ele>110</ele>
        <time>2024-10-19T11:39:00.552Z</time>
      </trkpt>
      <trkpt lat="46.84349" lon="-1.03666">
        <ele>110</ele>
        <time>2024-10-19T11:39:12.075Z</time>
      </trkpt>
      <trkpt lat="46.84369" lon="-1.03557">
        <ele>110</ele>
        <time>2024-10-19T11:39:25.150Z</time>
      </trkpt>
      <trkpt lat="46.8438" lon="-1.03499">
        <ele>110</ele>
        <time>2024-10-19T11:39:32.124Z</time>
      </trkpt>
      <trkpt lat="46.84397" lon="-1.03446">
        <ele>110</ele>
        <time>2024-10-19T11:39:38.906Z</time>
      </trkpt>
      <trkpt lat="46.84435" lon="-1.03352">
        <ele>110.6</ele>
        <time>2024-10-19T11:39:52.589Z</time>
      </trkpt>
      <trkpt lat="46.84453" lon="-1.03296">
        <ele>111</ele>
        <time>2024-10-19T11:40:00.455Z</time>
      </trkpt>
      <trkpt lat="46.84466" lon="-1.03246">
        <ele>110.8</ele>
        <time>2024-10-19T11:40:06.344Z</time>
      </trkpt>
      <trkpt lat="46.84484" lon="-1.03207">
        <ele>111.5</ele>
        <time>2024-10-19T11:40:13.149Z</time>
      </trkpt>
      <trkpt lat="46.84489" lon="-1.03166">
        <ele>112</ele>
        <time>2024-10-19T11:40:18.907Z</time>
      </trkpt>
      <trkpt lat="46.84473" lon="-1.02984">
        <ele>112</ele>
        <time>2024-10-19T11:40:40.167Z</time>
      </trkpt>
      <trkpt lat="46.84467" lon="-1.02883">
        <ele>112</ele>
        <time>2024-10-19T11:40:51.913Z</time>
      </trkpt>
      <trkpt lat="46.84486" lon="-1.02775">
        <ele>113</ele>
        <time>2024-10-19T11:41:06.628Z</time>
      </trkpt>
      <trkpt lat="46.84495" lon="-1.02734">
        <ele>113</ele>
        <time>2024-10-19T11:41:11.617Z</time>
      </trkpt>
      <trkpt lat="46.84517" lon="-1.02659">
        <ele>113</ele>
        <time>2024-10-19T11:41:21.072Z</time>
      </trkpt>
      <trkpt lat="46.84549" lon="-1.0256">
        <ele>113.8</ele>
        <time>2024-10-19T11:41:35.166Z</time>
      </trkpt>
      <trkpt lat="46.84563" lon="-1.02513">
        <ele>114</ele>
        <time>2024-10-19T11:41:41.442Z</time>
      </trkpt>
      <trkpt lat="46.84574" lon="-1.02475">
        <ele>114.6</ele>
        <time>2024-10-19T11:41:47.379Z</time>
      </trkpt>
      <trkpt lat="46.84603" lon="-1.02366">
        <ele>114</ele>
        <time>2024-10-19T11:42:00.019Z</time>
      </trkpt>
      <trkpt lat="46.84608" lon="-1.02343">
        <ele>113.9</ele>
        <time>2024-10-19T11:42:02.661Z</time>
      </trkpt>
      <trkpt lat="46.84607" lon="-1.0231">
        <ele>113.9</ele>
        <time>2024-10-19T11:42:06.488Z</time>
      </trkpt>
      <trkpt lat="46.84562" lon="-1.01767">
        <ele>107.3</ele>
        <time>2024-10-19T11:43:00.578Z</time>
        <extensions>
          <visugpx:TrkExtension xmlns:visugpx="https://www.visugpx.com/editgpx/">
            <visugpx:node>25</visugpx:node>
            </visugpx:TrkExtension>
        </extensions>
      </trkpt>
      <trkpt lat="46.84558" lon="-1.01715">
        <ele>108.2</ele>
        <time>2024-10-19T11:43:08.435Z</time>
      </trkpt>
      <trkpt lat="46.84552" lon="-1.01688">
        <ele>109.2</ele>
        <time>2024-10-19T11:43:14.284Z</time>
      </trkpt>
      <trkpt lat="46.84542" lon="-1.01664">
        <ele>110</ele>
        <time>2024-10-19T11:43:19.400Z</time>
      </trkpt>
      <trkpt lat="46.84501" lon="-1.01593">
        <ele>111.1</ele>
        <time>2024-10-19T11:43:32.213Z</time>
      </trkpt>
      <trkpt lat="46.84496" lon="-1.01576">
        <ele>111.2</ele>
        <time>2024-10-19T11:43:34.529Z</time>
      </trkpt>
      <trkpt lat="46.84493" lon="-1.01556">
        <ele>111.7</ele>
        <time>2024-10-19T11:43:38.000Z</time>
      </trkpt>
      <trkpt lat="46.84494" lon="-1.01534">
        <ele>111.2</ele>
        <time>2024-10-19T11:43:39.925Z</time>
      </trkpt>
      <trkpt lat="46.845" lon="-1.01511">
        <ele>110.4</ele>
        <time>2024-10-19T11:43:41.862Z</time>
      </trkpt>
      <trkpt lat="46.84511" lon="-1.01492">
        <ele>109.7</ele>
        <time>2024-10-19T11:43:43.910Z</time>
      </trkpt>
      <trkpt lat="46.84517" lon="-1.01499">
        <ele>109.4</ele>
        <time>2024-10-19T11:43:44.848Z</time>
      </trkpt>
      <trkpt lat="46.84522" lon="-1.01506">
        <ele>109.4</ele>
        <time>2024-10-19T11:43:46.020Z</time>
      </trkpt>
      <trkpt lat="46.84539" lon="-1.01512">
        <ele>109.7</ele>
        <time>2024-10-19T11:43:49.540Z</time>
      </trkpt>
      <trkpt lat="46.84541" lon="-1.01529">
        <ele>110</ele>
        <time>2024-10-19T11:43:52.139Z</time>
      </trkpt>
      <trkpt lat="46.84544" lon="-1.01537">
        <ele>110.1</ele>
        <time>2024-10-19T11:43:53.380Z</time>
      </trkpt>
      <trkpt lat="46.84554" lon="-1.01546">
        <ele>109.5</ele>
        <time>2024-10-19T11:43:54.698Z</time>
      </trkpt>
      <trkpt lat="46.84561" lon="-1.01546">
        <ele>109.3</ele>
        <time>2024-10-19T11:43:55.624Z</time>
      </trkpt>
      <trkpt lat="46.84566" lon="-1.01545">
        <ele>109.2</ele>
        <time>2024-10-19T11:43:56.340Z</time>
      </trkpt>
      <trkpt lat="46.84575" lon="-1.01536">
        <ele>109.2</ele>
        <time>2024-10-19T11:43:58.187Z</time>
      </trkpt>
      <trkpt lat="46.8458" lon="-1.01522">
        <ele>109.1</ele>
        <time>2024-10-19T11:43:59.867Z</time>
      </trkpt>
      <trkpt lat="46.84588" lon="-1.01525">
        <ele>109</ele>
        <time>2024-10-19T11:44:01.120Z</time>
      </trkpt>
      <trkpt lat="46.84658" lon="-1.01541">
        <ele>108.4</ele>
        <time>2024-10-19T11:44:12.217Z</time>
      </trkpt>
      <trkpt lat="46.84899" lon="-1.01569">
        <ele>114.2</ele>
        <time>2024-10-19T11:45:04.618Z</time>
      </trkpt>
      <trkpt lat="46.84936" lon="-1.01577">
        <ele>114.9</ele>
        <time>2024-10-19T11:45:12.273Z</time>
      </trkpt>
      <trkpt lat="46.84962" lon="-1.01586">
        <ele>115.7</ele>
        <time>2024-10-19T11:45:18.465Z</time>
      </trkpt>
      <trkpt lat="46.84985" lon="-1.01595">
        <ele>116</ele>
        <time>2024-10-19T11:45:23.035Z</time>
      </trkpt>
      <trkpt lat="46.85016" lon="-1.01612">
        <ele>116</ele>
        <time>2024-10-19T11:45:28.643Z</time>
      </trkpt>
      <trkpt lat="46.85149" lon="-1.01706">
        <ele>113.7</ele>
        <time>2024-10-19T11:45:50.381Z</time>
      </trkpt>
      <trkpt lat="46.85172" lon="-1.01721">
        <ele>112.9</ele>
        <time>2024-10-19T11:45:53.630Z</time>
      </trkpt>
      <trkpt lat="46.85197" lon="-1.01735">
        <ele>112.4</ele>
        <time>2024-10-19T11:45:57.467Z</time>
      </trkpt>
      <trkpt lat="46.85222" lon="-1.01747">
        <ele>111.1</ele>
        <time>2024-10-19T11:46:00.455Z</time>
      </trkpt>
      <trkpt lat="46.85263" lon="-1.01761">
        <ele>109.2</ele>
        <time>2024-10-19T11:46:05.379Z</time>
      </trkpt>
      <trkpt lat="46.85308" lon="-1.01771">
        <ele>107.8</ele>
        <time>2024-10-19T11:46:11.296Z</time>
      </trkpt>
      <trkpt lat="46.85356" lon="-1.01773">
        <ele>105.2</ele>
        <time>2024-10-19T11:46:16.579Z</time>
      </trkpt>
      <trkpt lat="46.85387" lon="-1.0177">
        <ele>104.1</ele>
        <time>2024-10-19T11:46:20.477Z</time>
      </trkpt>
      <trkpt lat="46.85423" lon="-1.01763">
        <ele>102.3</ele>
        <time>2024-10-19T11:46:24.596Z</time>
      </trkpt>
      <trkpt lat="46.85466" lon="-1.01748">
        <ele>101.2</ele>
        <time>2024-10-19T11:46:30.617Z</time>
      </trkpt>
      <trkpt lat="46.85508" lon="-1.01728">
        <ele>100.9</ele>
        <time>2024-10-19T11:46:37.641Z</time>
      </trkpt>
      <trkpt lat="46.85654" lon="-1.01633">
        <ele>106</ele>
        <time>2024-10-19T11:47:15.530Z</time>
      </trkpt>
      <trkpt lat="46.85679" lon="-1.01619">
        <ele>106.8</ele>
        <time>2024-10-19T11:47:21.730Z</time>
      </trkpt>
      <trkpt lat="46.85685" lon="-1.01615">
        <ele>107</ele>
        <time>2024-10-19T11:47:23.266Z</time>
      </trkpt>
      <trkpt lat="46.85693" lon="-1.01609">
        <ele>107.1</ele>
        <time>2024-10-19T11:47:24.965Z</time>
      </trkpt>
      <trkpt lat="46.85726" lon="-1.01586">
        <ele>108.1</ele>
        <time>2024-10-19T11:47:33.192Z</time>
      </trkpt>
      <trkpt lat="46.85741" lon="-1.01575">
        <ele>108.7</ele>
        <time>2024-10-19T11:47:37.354Z</time>
      </trkpt>
      <trkpt lat="46.85753" lon="-1.01559">
        <ele>109.1</ele>
        <time>2024-10-19T11:47:40.899Z</time>
      </trkpt>
      <trkpt lat="46.85759" lon="-1.01557">
        <ele>109.3</ele>
        <time>2024-10-19T11:47:42.368Z</time>
      </trkpt>
      <trkpt lat="46.85763" lon="-1.0155">
        <ele>109.5</ele>
        <time>2024-10-19T11:47:43.849Z</time>
      </trkpt>
      <trkpt lat="46.85786" lon="-1.01531">
        <ele>110</ele>
        <time>2024-10-19T11:47:49.268Z</time>
      </trkpt>
      <trkpt lat="46.85809" lon="-1.01509">
        <ele>110</ele>
        <time>2024-10-19T11:47:53.923Z</time>
        <extensions>
          <visugpx:TrkExtension xmlns:visugpx="https://www.visugpx.com/editgpx/">
            <visugpx:node>26</visugpx:node>
            </visugpx:TrkExtension>
        </extensions>
      </trkpt>
      <trkpt lat="46.85817" lon="-1.01501">
        <ele>110</ele>
        <time>2024-10-19T11:47:55.565Z</time>
      </trkpt>
      <trkpt lat="46.8584" lon="-1.01485">
        <ele>110.1</ele>
        <time>2024-10-19T11:48:00.046Z</time>
      </trkpt>
      <trkpt lat="46.85853" lon="-1.0148">
        <ele>110.5</ele>
        <time>2024-10-19T11:48:03.154Z</time>
      </trkpt>
      <trkpt lat="46.85862" lon="-1.01485">
        <ele>110.5</ele>
        <time>2024-10-19T11:48:04.785Z</time>
      </trkpt>
      <trkpt lat="46.85869" lon="-1.01482">
        <ele>110.6</ele>
        <time>2024-10-19T11:48:06.201Z</time>
      </trkpt>
      <trkpt lat="46.85874" lon="-1.0147">
        <ele>111</ele>
        <time>2024-10-19T11:48:08.759Z</time>
      </trkpt>
      <trkpt lat="46.85875" lon="-1.01465">
        <ele>111</ele>
        <time>2024-10-19T11:48:09.362Z</time>
      </trkpt>
      <trkpt lat="46.85883" lon="-1.0145">
        <ele>111</ele>
        <time>2024-10-19T11:48:11.566Z</time>
      </trkpt>
      <trkpt lat="46.859" lon="-1.01432">
        <ele>111</ele>
        <time>2024-10-19T11:48:15.121Z</time>
      </trkpt>
      <trkpt lat="46.85911" lon="-1.01423">
        <ele>111</ele>
        <time>2024-10-19T11:48:17.256Z</time>
      </trkpt>
      <trkpt lat="46.85974" lon="-1.01372">
        <ele>112</ele>
        <time>2024-10-19T11:48:31.261Z</time>
      </trkpt>
      <trkpt lat="46.86018" lon="-1.01336">
        <ele>113</ele>
        <time>2024-10-19T11:48:41.704Z</time>
      </trkpt>
      <trkpt lat="46.86055" lon="-1.01308">
        <ele>114</ele>
        <time>2024-10-19T11:48:50.735Z</time>
      </trkpt>
      <trkpt lat="46.8608" lon="-1.01279">
        <ele>114.1</ele>
        <time>2024-10-19T11:48:56.305Z</time>
      </trkpt>
      <trkpt lat="46.86137" lon="-1.01206">
        <ele>115</ele>
        <time>2024-10-19T11:49:10.738Z</time>
      </trkpt>
      <trkpt lat="46.86175" lon="-1.01156">
        <ele>115.4</ele>
        <time>2024-10-19T11:49:20.084Z</time>
      </trkpt>
      <trkpt lat="46.86184" lon="-1.01141">
        <ele>115.9</ele>
        <time>2024-10-19T11:49:23.504Z</time>
      </trkpt>
      <trkpt lat="46.8618" lon="-1.01132">
        <ele>116</ele>
        <time>2024-10-19T11:49:24.927Z</time>
      </trkpt>
      <trkpt lat="46.86156" lon="-1.01111">
        <ele>115.6</ele>
        <time>2024-10-19T11:49:29.088Z</time>
      </trkpt>
      <trkpt lat="46.86177" lon="-1.01057">
        <ele>116.4</ele>
        <time>2024-10-19T11:49:37.792Z</time>
      </trkpt>
      <trkpt lat="46.86195" lon="-1.01007">
        <ele>117</ele>
        <time>2024-10-19T11:49:45.437Z</time>
      </trkpt>
      <trkpt lat="46.86207" lon="-1.00973">
        <ele>117.5</ele>
        <time>2024-10-19T11:49:50.814Z</time>
      </trkpt>
      <trkpt lat="46.86217" lon="-1.00945">
        <ele>117.8</ele>
        <time>2024-10-19T11:49:55.015Z</time>
      </trkpt>
      <trkpt lat="46.86239" lon="-1.00889">
        <ele>118.6</ele>
        <time>2024-10-19T11:50:03.994Z</time>
      </trkpt>
      <trkpt lat="46.86248" lon="-1.00863">
        <ele>119.8</ele>
        <time>2024-10-19T11:50:10.720Z</time>
      </trkpt>
      <trkpt lat="46.86249" lon="-1.00861">
        <ele>119.9</ele>
        <time>2024-10-19T11:50:11.283Z</time>
      </trkpt>
      <trkpt lat="46.86252" lon="-1.0085">
        <ele>120</ele>
        <time>2024-10-19T11:50:12.833Z</time>
      </trkpt>
      <trkpt lat="46.86256" lon="-1.00824">
        <ele>119.7</ele>
        <time>2024-10-19T11:50:15.494Z</time>
      </trkpt>
      <trkpt lat="46.86257" lon="-1.00807">
        <ele>119.3</ele>
        <time>2024-10-19T11:50:16.970Z</time>
      </trkpt>
      <trkpt lat="46.86256" lon="-1.00786">
        <ele>119.2</ele>
        <time>2024-10-19T11:50:19.256Z</time>
      </trkpt>
      <trkpt lat="46.86248" lon="-1.00733">
        <ele>117.4</ele>
        <time>2024-10-19T11:50:23.496Z</time>
      </trkpt>
      <trkpt lat="46.86236" lon="-1.0068">
        <ele>116.2</ele>
        <time>2024-10-19T11:50:28.433Z</time>
      </trkpt>
      <trkpt lat="46.86272" lon="-1.00663">
        <ele>117.5</ele>
        <time>2024-10-19T11:50:37.663Z</time>
      </trkpt>
      <trkpt lat="46.86324" lon="-1.00626">
        <ele>118.2</ele>
        <time>2024-10-19T11:50:48.704Z</time>
      </trkpt>
      <trkpt lat="46.86326" lon="-1.00624">
        <ele>118.2</ele>
        <time>2024-10-19T11:50:49.115Z</time>
      </trkpt>
      <trkpt lat="46.86347" lon="-1.00604">
        <ele>118.9</ele>
        <time>2024-10-19T11:50:54.791Z</time>
        <extensions>
          <visugpx:TrkExtension xmlns:visugpx="https://www.visugpx.com/editgpx/">
            <visugpx:node>27</visugpx:node>
            </visugpx:TrkExtension>
        </extensions>
      </trkpt>
      <trkpt lat="46.86353" lon="-1.00596">
        <ele>119</ele>
        <time>2024-10-19T11:50:56.345Z</time>
        <extensions>
          <visugpx:TrkExtension xmlns:visugpx="https://www.visugpx.com/editgpx/">
            <visugpx:node>28</visugpx:node>
            </visugpx:TrkExtension>
        </extensions>
      </trkpt>
    </trkseg>
  </trk>
</gpx>